<?xml version="1.0" encoding="UTF-8" standalone="no" ?>
<gpx xmlns="http://www.topografix.com/GPX/1/1" xmlns:xsi="http://www.w3.org/2001/XMLSchema-instance" xsi:schemaLocation="http://www.topografix.com/GPX/1/1 http://www.topografix.com/GPX/1/1/gpx.xsd" version="1.1" creator="VisuGPX - https://www.visugpx.com">
  <metadata>
    <name>A1 les 3 monts 2023 </name>
  </metadata>
  <wpt lat="50.38064" lon="2.70405">
    <ele>90.6</ele>
    <name><![CDATA[Nourriture]]></name>
    <type><![CDATA[FOOD]]></type>
  </wpt>
  <trk>
    <name><![CDATA[A1 les 3 monts 2023 &amp;quot;35km&amp;quot;]]></name>
    <extensions>
      <line xmlns="http://www.topografix.com/GPX/gpx_style/0/2">
        <color>0000FF</color>
        <width>4</width>
          <extensions>
            <sens>1</sens>
          </extensions>
      </line>
    </extensions>
    <trkseg>
      <trkpt lat="50.41029" lon="2.75203">
        <ele>74</ele>
        <time>2023-10-28T12:58:46.000Z</time>
      </trkpt>
      <trkpt lat="50.41019" lon="2.75195">
        <ele>74.2</ele>
        <time>2023-10-28T12:58:46.003Z</time>
      </trkpt>
      <trkpt lat="50.41002" lon="2.75183">
        <ele>74.8</ele>
        <time>2023-10-28T12:58:46.011Z</time>
      </trkpt>
      <trkpt lat="50.40986" lon="2.75172">
        <ele>75</ele>
        <time>2023-10-28T12:58:46.024Z</time>
      </trkpt>
      <trkpt lat="50.40969" lon="2.7516">
        <ele>75</ele>
        <time>2023-10-28T12:58:46.042Z</time>
      </trkpt>
      <trkpt lat="50.4093" lon="2.75133">
        <ele>73</ele>
        <time>2023-10-28T12:58:46.072Z</time>
      </trkpt>
      <trkpt lat="50.40906" lon="2.75116">
        <ele>73</ele>
        <time>2023-10-28T12:58:46.109Z</time>
      </trkpt>
      <trkpt lat="50.40886" lon="2.75101">
        <ele>73</ele>
        <time>2023-10-28T12:58:46.152Z</time>
      </trkpt>
      <trkpt lat="50.40881" lon="2.75098">
        <ele>72.8</ele>
        <time>2023-10-28T12:58:46.196Z</time>
      </trkpt>
      <trkpt lat="50.40864" lon="2.75086">
        <ele>72.2</ele>
        <time>2023-10-28T12:58:46.246Z</time>
      </trkpt>
      <trkpt lat="50.40808" lon="2.7504">
        <ele>70.8</ele>
        <time>2023-10-28T12:58:46.313Z</time>
      </trkpt>
      <trkpt lat="50.40783" lon="2.75014">
        <ele>71.8</ele>
        <time>2023-10-28T12:58:46.388Z</time>
      </trkpt>
      <trkpt lat="50.40761" lon="2.74985">
        <ele>71.8</ele>
        <time>2023-10-28T12:58:46.471Z</time>
      </trkpt>
      <trkpt lat="50.40745" lon="2.74957">
        <ele>70.8</ele>
        <time>2023-10-28T12:58:46.561Z</time>
      </trkpt>
      <trkpt lat="50.40728" lon="2.74924">
        <ele>69.6</ele>
        <time>2023-10-28T12:58:46.658Z</time>
      </trkpt>
      <trkpt lat="50.40694" lon="2.74853">
        <ele>71.6</ele>
        <time>2023-10-28T12:58:46.770Z</time>
      </trkpt>
      <trkpt lat="50.40652" lon="2.74784">
        <ele>74.4</ele>
        <time>2023-10-28T12:58:46.899Z</time>
      </trkpt>
      <trkpt lat="50.40604" lon="2.74713">
        <ele>76.8</ele>
        <time>2023-10-28T12:58:47.046Z</time>
      </trkpt>
      <trkpt lat="50.40567" lon="2.74659">
        <ele>76</ele>
        <time>2023-10-28T12:58:47.207Z</time>
      </trkpt>
      <trkpt lat="50.4054" lon="2.74622">
        <ele>76.8</ele>
        <time>2023-10-28T12:58:47.378Z</time>
      </trkpt>
      <trkpt lat="50.40528" lon="2.74607">
        <ele>77</ele>
        <time>2023-10-28T12:58:47.553Z</time>
      </trkpt>
      <trkpt lat="50.40509" lon="2.7457">
        <ele>77</ele>
        <time>2023-10-28T12:58:47.736Z</time>
      </trkpt>
      <trkpt lat="50.40507" lon="2.74556">
        <ele>77.2</ele>
        <time>2023-10-28T12:58:47.922Z</time>
      </trkpt>
      <trkpt lat="50.40507" lon="2.74551">
        <ele>77.4</ele>
        <time>2023-10-28T12:58:48.109Z</time>
      </trkpt>
      <trkpt lat="50.40504" lon="2.74549">
        <ele>77.4</ele>
        <time>2023-10-28T12:58:48.297Z</time>
      </trkpt>
      <trkpt lat="50.40488" lon="2.74551">
        <ele>77.8</ele>
        <time>2023-10-28T12:58:48.489Z</time>
      </trkpt>
      <trkpt lat="50.40427" lon="2.7455">
        <ele>79.4</ele>
        <time>2023-10-28T12:58:48.698Z</time>
      </trkpt>
      <trkpt lat="50.40407" lon="2.7455">
        <ele>79.8</ele>
        <time>2023-10-28T12:58:48.912Z</time>
      </trkpt>
      <trkpt lat="50.40385" lon="2.74565">
        <ele>78.8</ele>
        <time>2023-10-28T12:58:49.133Z</time>
      </trkpt>
      <trkpt lat="50.40366" lon="2.74593">
        <ele>78</ele>
        <time>2023-10-28T12:58:49.361Z</time>
      </trkpt>
      <trkpt lat="50.40355" lon="2.7461">
        <ele>78.2</ele>
        <time>2023-10-28T12:58:49.593Z</time>
      </trkpt>
      <trkpt lat="50.40316" lon="2.74654">
        <ele>81</ele>
        <time>2023-10-28T12:58:49.838Z</time>
      </trkpt>
      <trkpt lat="50.40271" lon="2.74722">
        <ele>81.2</ele>
        <time>2023-10-28T12:58:50.100Z</time>
      </trkpt>
      <trkpt lat="50.40252" lon="2.74751">
        <ele>80.4</ele>
        <time>2023-10-28T12:58:50.370Z</time>
      </trkpt>
      <trkpt lat="50.40211" lon="2.74814">
        <ele>80</ele>
        <time>2023-10-28T12:58:50.655Z</time>
      </trkpt>
      <trkpt lat="50.40197" lon="2.74834">
        <ele>81.6</ele>
        <time>2023-10-28T12:58:50.946Z</time>
      </trkpt>
      <trkpt lat="50.40171" lon="2.74873">
        <ele>83.8</ele>
        <time>2023-10-28T12:58:51.246Z</time>
      </trkpt>
      <trkpt lat="50.40133" lon="2.74929">
        <ele>85</ele>
        <time>2023-10-28T12:58:51.561Z</time>
      </trkpt>
      <trkpt lat="50.40123" lon="2.74944">
        <ele>84.8</ele>
        <time>2023-10-28T12:58:51.879Z</time>
      </trkpt>
      <trkpt lat="50.40066" lon="2.75026">
        <ele>86.6</ele>
        <time>2023-10-28T12:58:52.219Z</time>
      </trkpt>
      <trkpt lat="50.40039" lon="2.75065">
        <ele>85.4</ele>
        <time>2023-10-28T12:58:52.569Z</time>
      </trkpt>
      <trkpt lat="50.39992" lon="2.75141">
        <ele>80.8</ele>
        <time>2023-10-28T12:58:52.937Z</time>
      </trkpt>
      <trkpt lat="50.39962" lon="2.75194">
        <ele>75.8</ele>
        <time>2023-10-28T12:58:53.318Z</time>
      </trkpt>
      <trkpt lat="50.39945" lon="2.75223">
        <ele>74.4</ele>
        <time>2023-10-28T12:58:53.705Z</time>
      </trkpt>
      <trkpt lat="50.39926" lon="2.75257">
        <ele>72.6</ele>
        <time>2023-10-28T12:58:54.100Z</time>
      </trkpt>
      <trkpt lat="50.39912" lon="2.75267">
        <ele>72.4</ele>
        <time>2023-10-28T12:58:54.500Z</time>
      </trkpt>
      <trkpt lat="50.39906" lon="2.7526">
        <ele>73.4</ele>
        <time>2023-10-28T12:58:54.902Z</time>
      </trkpt>
      <trkpt lat="50.39895" lon="2.75276">
        <ele>73</ele>
        <time>2023-10-28T12:58:55.308Z</time>
      </trkpt>
      <trkpt lat="50.39862" lon="2.7531">
        <ele>73.8</ele>
        <time>2023-10-28T12:58:55.724Z</time>
      </trkpt>
      <trkpt lat="50.39839" lon="2.75332">
        <ele>73.4</ele>
        <time>2023-10-28T12:58:56.148Z</time>
      </trkpt>
      <trkpt lat="50.39814" lon="2.75357">
        <ele>72.4</ele>
        <time>2023-10-28T12:58:56.580Z</time>
      </trkpt>
      <trkpt lat="50.39784" lon="2.75388">
        <ele>72.6</ele>
        <time>2023-10-28T12:58:57.022Z</time>
      </trkpt>
      <trkpt lat="50.3977" lon="2.75401">
        <ele>72.4</ele>
        <time>2023-10-28T12:58:57.468Z</time>
      </trkpt>
      <trkpt lat="50.39789" lon="2.75457">
        <ele>67.6</ele>
        <time>2023-10-28T12:58:57.925Z</time>
      </trkpt>
      <trkpt lat="50.39813" lon="2.75499">
        <ele>67.4</ele>
        <time>2023-10-28T12:58:58.392Z</time>
      </trkpt>
      <trkpt lat="50.39828" lon="2.75527">
        <ele>67</ele>
        <time>2023-10-28T12:58:58.865Z</time>
      </trkpt>
      <trkpt lat="50.39854" lon="2.75573">
        <ele>67.2</ele>
        <time>2023-10-28T12:58:59.349Z</time>
      </trkpt>
      <trkpt lat="50.39878" lon="2.75623">
        <ele>68.2</ele>
        <time>2023-10-28T12:58:59.844Z</time>
      </trkpt>
      <trkpt lat="50.39901" lon="2.75659">
        <ele>68</ele>
        <time>2023-10-28T12:59:00.348Z</time>
      </trkpt>
      <trkpt lat="50.39958" lon="2.75753">
        <ele>68.2</ele>
        <time>2023-10-28T12:59:00.875Z</time>
      </trkpt>
      <trkpt lat="50.39974" lon="2.75779">
        <ele>67.8</ele>
        <time>2023-10-28T12:59:01.408Z</time>
      </trkpt>
      <trkpt lat="50.40001" lon="2.75825">
        <ele>68.2</ele>
        <time>2023-10-28T12:59:01.952Z</time>
      </trkpt>
      <trkpt lat="50.40032" lon="2.75878">
        <ele>67</ele>
        <time>2023-10-28T12:59:02.508Z</time>
      </trkpt>
      <trkpt lat="50.40053" lon="2.75908">
        <ele>67</ele>
        <time>2023-10-28T12:59:03.072Z</time>
      </trkpt>
      <trkpt lat="50.40102" lon="2.75953">
        <ele>66.4</ele>
        <time>2023-10-28T12:59:03.652Z</time>
      </trkpt>
      <trkpt lat="50.40121" lon="2.75969">
        <ele>66.8</ele>
        <time>2023-10-28T12:59:04.238Z</time>
      </trkpt>
      <trkpt lat="50.4014" lon="2.75995">
        <ele>67.6</ele>
        <time>2023-10-28T12:59:04.831Z</time>
      </trkpt>
      <trkpt lat="50.40168" lon="2.76037">
        <ele>65.6</ele>
        <time>2023-10-28T12:59:05.434Z</time>
      </trkpt>
      <trkpt lat="50.40205" lon="2.76093">
        <ele>66.4</ele>
        <time>2023-10-28T12:59:06.051Z</time>
      </trkpt>
      <trkpt lat="50.4024" lon="2.76143">
        <ele>65.2</ele>
        <time>2023-10-28T12:59:06.681Z</time>
      </trkpt>
      <trkpt lat="50.40314" lon="2.76225">
        <ele>64.8</ele>
        <time>2023-10-28T12:59:07.336Z</time>
      </trkpt>
      <trkpt lat="50.40351" lon="2.76268">
        <ele>62.6</ele>
        <time>2023-10-28T12:59:08.004Z</time>
      </trkpt>
      <trkpt lat="50.40375" lon="2.76305">
        <ele>63.4</ele>
        <time>2023-10-28T12:59:08.681Z</time>
      </trkpt>
      <trkpt lat="50.40387" lon="2.76328">
        <ele>64</ele>
        <time>2023-10-28T12:59:09.363Z</time>
      </trkpt>
      <trkpt lat="50.40402" lon="2.76391">
        <ele>63.8</ele>
        <time>2023-10-28T12:59:10.057Z</time>
      </trkpt>
      <trkpt lat="50.40408" lon="2.76424">
        <ele>62.6</ele>
        <time>2023-10-28T12:59:10.757Z</time>
      </trkpt>
      <trkpt lat="50.40424" lon="2.76491">
        <ele>62.6</ele>
        <time>2023-10-28T12:59:11.469Z</time>
      </trkpt>
      <trkpt lat="50.40435" lon="2.76542">
        <ele>63.2</ele>
        <time>2023-10-28T12:59:12.191Z</time>
      </trkpt>
      <trkpt lat="50.40466" lon="2.76647">
        <ele>67.4</ele>
        <time>2023-10-28T12:59:12.933Z</time>
      </trkpt>
      <trkpt lat="50.40481" lon="2.76694">
        <ele>66.2</ele>
        <time>2023-10-28T12:59:13.684Z</time>
      </trkpt>
      <trkpt lat="50.40505" lon="2.76772">
        <ele>63.2</ele>
        <time>2023-10-28T12:59:14.450Z</time>
      </trkpt>
      <trkpt lat="50.40516" lon="2.76799">
        <ele>63.4</ele>
        <time>2023-10-28T12:59:15.222Z</time>
      </trkpt>
      <trkpt lat="50.40524" lon="2.76818">
        <ele>63</ele>
        <time>2023-10-28T12:59:15.998Z</time>
      </trkpt>
      <trkpt lat="50.40527" lon="2.76825">
        <ele>63</ele>
        <time>2023-10-28T12:59:16.775Z</time>
      </trkpt>
      <trkpt lat="50.40538" lon="2.76847">
        <ele>63.2</ele>
        <time>2023-10-28T12:59:17.557Z</time>
      </trkpt>
      <trkpt lat="50.40558" lon="2.76882">
        <ele>64.2</ele>
        <time>2023-10-28T12:59:18.347Z</time>
      </trkpt>
      <trkpt lat="50.40563" lon="2.769">
        <ele>64.4</ele>
        <time>2023-10-28T12:59:19.141Z</time>
      </trkpt>
      <trkpt lat="50.40558" lon="2.76936">
        <ele>65.6</ele>
        <time>2023-10-28T12:59:19.941Z</time>
      </trkpt>
      <trkpt lat="50.40562" lon="2.76941">
        <ele>65.4</ele>
        <time>2023-10-28T12:59:20.743Z</time>
      </trkpt>
      <trkpt lat="50.40585" lon="2.76939">
        <ele>63.8</ele>
        <time>2023-10-28T12:59:21.551Z</time>
      </trkpt>
      <trkpt lat="50.40617" lon="2.76999">
        <ele>62</ele>
        <time>2023-10-28T12:59:22.373Z</time>
      </trkpt>
      <trkpt lat="50.40624" lon="2.77013">
        <ele>62</ele>
        <time>2023-10-28T12:59:23.198Z</time>
      </trkpt>
      <trkpt lat="50.40608" lon="2.77073">
        <ele>61</ele>
        <time>2023-10-28T12:59:24.034Z</time>
      </trkpt>
      <trkpt lat="50.40593" lon="2.77112">
        <ele>61</ele>
        <time>2023-10-28T12:59:24.878Z</time>
      </trkpt>
      <trkpt lat="50.40572" lon="2.77171">
        <ele>57.6</ele>
        <time>2023-10-28T12:59:25.734Z</time>
      </trkpt>
      <trkpt lat="50.40558" lon="2.77203">
        <ele>54.4</ele>
        <time>2023-10-28T12:59:26.597Z</time>
      </trkpt>
      <trkpt lat="50.40551" lon="2.77222">
        <ele>54</ele>
        <time>2023-10-28T12:59:27.464Z</time>
      </trkpt>
      <trkpt lat="50.40555" lon="2.77258">
        <ele>52</ele>
        <time>2023-10-28T12:59:28.337Z</time>
      </trkpt>
      <trkpt lat="50.4057" lon="2.77294">
        <ele>50.6</ele>
        <time>2023-10-28T12:59:29.218Z</time>
      </trkpt>
      <trkpt lat="50.40578" lon="2.77319">
        <ele>50.2</ele>
        <time>2023-10-28T12:59:30.103Z</time>
      </trkpt>
      <trkpt lat="50.40588" lon="2.7735">
        <ele>50.2</ele>
        <time>2023-10-28T12:59:30.994Z</time>
      </trkpt>
      <trkpt lat="50.4059" lon="2.77402">
        <ele>50.2</ele>
        <time>2023-10-28T12:59:31.895Z</time>
      </trkpt>
      <trkpt lat="50.40589" lon="2.77418">
        <ele>50.4</ele>
        <time>2023-10-28T12:59:32.798Z</time>
      </trkpt>
      <trkpt lat="50.40582" lon="2.77449">
        <ele>51.8</ele>
        <time>2023-10-28T12:59:33.707Z</time>
      </trkpt>
      <trkpt lat="50.40573" lon="2.77475">
        <ele>52.8</ele>
        <time>2023-10-28T12:59:34.621Z</time>
      </trkpt>
      <trkpt lat="50.40564" lon="2.77491">
        <ele>52.4</ele>
        <time>2023-10-28T12:59:35.539Z</time>
      </trkpt>
      <trkpt lat="50.4056" lon="2.7751">
        <ele>52.2</ele>
        <time>2023-10-28T12:59:36.460Z</time>
      </trkpt>
      <trkpt lat="50.40552" lon="2.77534">
        <ele>52</ele>
        <time>2023-10-28T12:59:37.386Z</time>
      </trkpt>
      <trkpt lat="50.40541" lon="2.7758">
        <ele>53.2</ele>
        <time>2023-10-28T12:59:38.321Z</time>
      </trkpt>
      <trkpt lat="50.40533" lon="2.77589">
        <ele>53.8</ele>
        <time>2023-10-28T12:59:39.259Z</time>
      </trkpt>
      <trkpt lat="50.4055" lon="2.77571">
        <ele>53.2</ele>
        <time>2023-10-28T12:59:40.202Z</time>
      </trkpt>
      <trkpt lat="50.40572" lon="2.77539">
        <ele>52.6</ele>
        <time>2023-10-28T12:59:41.153Z</time>
      </trkpt>
      <trkpt lat="50.40591" lon="2.77507">
        <ele>52.6</ele>
        <time>2023-10-28T12:59:42.112Z</time>
      </trkpt>
      <trkpt lat="50.4061" lon="2.7747">
        <ele>51.6</ele>
        <time>2023-10-28T12:59:43.079Z</time>
      </trkpt>
      <trkpt lat="50.40632" lon="2.77426">
        <ele>50.8</ele>
        <time>2023-10-28T12:59:44.056Z</time>
      </trkpt>
      <trkpt lat="50.40662" lon="2.77363">
        <ele>54.2</ele>
        <time>2023-10-28T12:59:45.047Z</time>
      </trkpt>
      <trkpt lat="50.40678" lon="2.77328">
        <ele>56</ele>
        <time>2023-10-28T12:59:46.046Z</time>
      </trkpt>
      <trkpt lat="50.40687" lon="2.7733">
        <ele>56.2</ele>
        <time>2023-10-28T12:59:47.047Z</time>
      </trkpt>
      <trkpt lat="50.40684" lon="2.77341">
        <ele>55.6</ele>
        <time>2023-10-28T12:59:48.050Z</time>
      </trkpt>
      <trkpt lat="50.40679" lon="2.77358">
        <ele>54.8</ele>
        <time>2023-10-28T12:59:49.056Z</time>
      </trkpt>
      <trkpt lat="50.40683" lon="2.77375">
        <ele>54.6</ele>
        <time>2023-10-28T12:59:50.066Z</time>
      </trkpt>
      <trkpt lat="50.40695" lon="2.774">
        <ele>55</ele>
        <time>2023-10-28T12:59:51.081Z</time>
      </trkpt>
      <trkpt lat="50.40699" lon="2.77438">
        <ele>54.8</ele>
        <time>2023-10-28T12:59:52.103Z</time>
      </trkpt>
      <trkpt lat="50.40704" lon="2.77471">
        <ele>53.2</ele>
        <time>2023-10-28T12:59:53.131Z</time>
      </trkpt>
      <trkpt lat="50.40711" lon="2.77499">
        <ele>51.6</ele>
        <time>2023-10-28T12:59:54.164Z</time>
      </trkpt>
      <trkpt lat="50.40716" lon="2.77517">
        <ele>50.4</ele>
        <time>2023-10-28T12:59:55.200Z</time>
      </trkpt>
      <trkpt lat="50.40712" lon="2.77544">
        <ele>49.8</ele>
        <time>2023-10-28T12:59:56.241Z</time>
      </trkpt>
      <trkpt lat="50.40697" lon="2.77578">
        <ele>51</ele>
        <time>2023-10-28T12:59:57.289Z</time>
      </trkpt>
      <trkpt lat="50.40699" lon="2.7763">
        <ele>51.8</ele>
        <time>2023-10-28T12:59:58.346Z</time>
      </trkpt>
      <trkpt lat="50.40711" lon="2.7767">
        <ele>51</ele>
        <time>2023-10-28T12:59:59.411Z</time>
      </trkpt>
      <trkpt lat="50.40732" lon="2.77726">
        <ele>50</ele>
        <time>2023-10-28T13:00:00.487Z</time>
      </trkpt>
      <trkpt lat="50.40741" lon="2.77752">
        <ele>50</ele>
        <time>2023-10-28T13:00:01.569Z</time>
      </trkpt>
      <trkpt lat="50.40755" lon="2.77791">
        <ele>50</ele>
        <time>2023-10-28T13:00:02.658Z</time>
      </trkpt>
      <trkpt lat="50.40768" lon="2.77827">
        <ele>50.4</ele>
        <time>2023-10-28T13:00:03.755Z</time>
      </trkpt>
      <trkpt lat="50.40799" lon="2.77913">
        <ele>48.8</ele>
        <time>2023-10-28T13:00:04.869Z</time>
      </trkpt>
      <trkpt lat="50.40816" lon="2.77965">
        <ele>47.6</ele>
        <time>2023-10-28T13:00:05.993Z</time>
      </trkpt>
      <trkpt lat="50.40841" lon="2.7804">
        <ele>44</ele>
        <time>2023-10-28T13:00:07.132Z</time>
      </trkpt>
      <trkpt lat="50.4088" lon="2.78136">
        <ele>42.6</ele>
        <time>2023-10-28T13:00:08.291Z</time>
      </trkpt>
      <trkpt lat="50.40891" lon="2.78154">
        <ele>41.8</ele>
        <time>2023-10-28T13:00:09.454Z</time>
      </trkpt>
      <trkpt lat="50.409" lon="2.78174">
        <ele>41.4</ele>
        <time>2023-10-28T13:00:10.622Z</time>
      </trkpt>
      <trkpt lat="50.40905" lon="2.78193">
        <ele>42</ele>
        <time>2023-10-28T13:00:11.793Z</time>
      </trkpt>
      <trkpt lat="50.40905" lon="2.78221">
        <ele>42</ele>
        <time>2023-10-28T13:00:12.969Z</time>
      </trkpt>
      <trkpt lat="50.40909" lon="2.78262">
        <ele>42.6</ele>
        <time>2023-10-28T13:00:14.152Z</time>
      </trkpt>
      <trkpt lat="50.40914" lon="2.78303">
        <ele>44.6</ele>
        <time>2023-10-28T13:00:15.342Z</time>
      </trkpt>
      <trkpt lat="50.40911" lon="2.78353">
        <ele>45.4</ele>
        <time>2023-10-28T13:00:16.541Z</time>
      </trkpt>
      <trkpt lat="50.40907" lon="2.78431">
        <ele>46.4</ele>
        <time>2023-10-28T13:00:17.754Z</time>
      </trkpt>
      <trkpt lat="50.40895" lon="2.78492">
        <ele>46.2</ele>
        <time>2023-10-28T13:00:18.978Z</time>
      </trkpt>
      <trkpt lat="50.40901" lon="2.78543">
        <ele>45.2</ele>
        <time>2023-10-28T13:00:20.211Z</time>
      </trkpt>
      <trkpt lat="50.40913" lon="2.78586">
        <ele>43.2</ele>
        <time>2023-10-28T13:00:21.452Z</time>
      </trkpt>
      <trkpt lat="50.40907" lon="2.78602">
        <ele>42.8</ele>
        <time>2023-10-28T13:00:22.697Z</time>
      </trkpt>
      <trkpt lat="50.40905" lon="2.78604">
        <ele>42.8</ele>
        <time>2023-10-28T13:00:23.942Z</time>
      </trkpt>
      <trkpt lat="50.40899" lon="2.78598">
        <ele>43.6</ele>
        <time>2023-10-28T13:00:25.189Z</time>
      </trkpt>
      <trkpt lat="50.40891" lon="2.78587">
        <ele>44.8</ele>
        <time>2023-10-28T13:00:26.439Z</time>
      </trkpt>
      <trkpt lat="50.4086" lon="2.78532">
        <ele>45.2</ele>
        <time>2023-10-28T13:00:27.702Z</time>
      </trkpt>
      <trkpt lat="50.40839" lon="2.78493">
        <ele>45.8</ele>
        <time>2023-10-28T13:00:28.974Z</time>
      </trkpt>
      <trkpt lat="50.40821" lon="2.78458">
        <ele>48.2</ele>
        <time>2023-10-28T13:00:30.254Z</time>
      </trkpt>
      <trkpt lat="50.4081" lon="2.78437">
        <ele>50</ele>
        <time>2023-10-28T13:00:31.538Z</time>
      </trkpt>
      <trkpt lat="50.40798" lon="2.78418">
        <ele>51.4</ele>
        <time>2023-10-28T13:00:32.827Z</time>
      </trkpt>
      <trkpt lat="50.4078" lon="2.78396">
        <ele>52.6</ele>
        <time>2023-10-28T13:00:34.122Z</time>
      </trkpt>
      <trkpt lat="50.40745" lon="2.78363">
        <ele>52.8</ele>
        <time>2023-10-28T13:00:35.429Z</time>
      </trkpt>
      <trkpt lat="50.40705" lon="2.78334">
        <ele>54.6</ele>
        <time>2023-10-28T13:00:36.748Z</time>
      </trkpt>
      <trkpt lat="50.40667" lon="2.78273">
        <ele>54.8</ele>
        <time>2023-10-28T13:00:38.082Z</time>
      </trkpt>
      <trkpt lat="50.40645" lon="2.78229">
        <ele>55.6</ele>
        <time>2023-10-28T13:00:39.425Z</time>
      </trkpt>
      <trkpt lat="50.40632" lon="2.78196">
        <ele>56.4</ele>
        <time>2023-10-28T13:00:40.775Z</time>
      </trkpt>
      <trkpt lat="50.40615" lon="2.78152">
        <ele>57.6</ele>
        <time>2023-10-28T13:00:42.134Z</time>
      </trkpt>
      <trkpt lat="50.40613" lon="2.78137">
        <ele>57.4</ele>
        <time>2023-10-28T13:00:43.496Z</time>
      </trkpt>
      <trkpt lat="50.40607" lon="2.78093">
        <ele>57</ele>
        <time>2023-10-28T13:00:44.865Z</time>
      </trkpt>
      <trkpt lat="50.406" lon="2.78074">
        <ele>57</ele>
        <time>2023-10-28T13:00:46.238Z</time>
      </trkpt>
      <trkpt lat="50.40588" lon="2.78047">
        <ele>56.8</ele>
        <time>2023-10-28T13:00:47.617Z</time>
      </trkpt>
      <trkpt lat="50.40575" lon="2.78009">
        <ele>56.6</ele>
        <time>2023-10-28T13:00:49.004Z</time>
      </trkpt>
      <trkpt lat="50.40583" lon="2.77994">
        <ele>55.2</ele>
        <time>2023-10-28T13:00:50.394Z</time>
      </trkpt>
      <trkpt lat="50.40583" lon="2.77959">
        <ele>54</ele>
        <time>2023-10-28T13:00:51.790Z</time>
      </trkpt>
      <trkpt lat="50.40583" lon="2.77946">
        <ele>53.6</ele>
        <time>2023-10-28T13:00:53.188Z</time>
      </trkpt>
      <trkpt lat="50.40583" lon="2.77914">
        <ele>53</ele>
        <time>2023-10-28T13:00:54.592Z</time>
      </trkpt>
      <trkpt lat="50.40542" lon="2.77895">
        <ele>56.4</ele>
        <time>2023-10-28T13:00:56.008Z</time>
      </trkpt>
      <trkpt lat="50.40535" lon="2.77873">
        <ele>56.8</ele>
        <time>2023-10-28T13:00:57.428Z</time>
      </trkpt>
      <trkpt lat="50.40523" lon="2.77835">
        <ele>56</ele>
        <time>2023-10-28T13:00:58.855Z</time>
      </trkpt>
      <trkpt lat="50.40517" lon="2.77818">
        <ele>56</ele>
        <time>2023-10-28T13:01:00.286Z</time>
      </trkpt>
      <trkpt lat="50.40506" lon="2.77777">
        <ele>56.4</ele>
        <time>2023-10-28T13:01:01.724Z</time>
      </trkpt>
      <trkpt lat="50.4049" lon="2.77736">
        <ele>58.6</ele>
        <time>2023-10-28T13:01:03.171Z</time>
      </trkpt>
      <trkpt lat="50.40471" lon="2.77693">
        <ele>60.2</ele>
        <time>2023-10-28T13:01:04.627Z</time>
      </trkpt>
      <trkpt lat="50.40466" lon="2.77679">
        <ele>61</ele>
        <time>2023-10-28T13:01:06.086Z</time>
      </trkpt>
      <trkpt lat="50.40452" lon="2.77637">
        <ele>62.2</ele>
        <time>2023-10-28T13:01:07.553Z</time>
      </trkpt>
      <trkpt lat="50.40448" lon="2.77629">
        <ele>62.49</ele>
        <time>2023-10-28T13:01:09.022Z</time>
      </trkpt>
      <trkpt lat="50.40444" lon="2.7762">
        <ele>62.8</ele>
        <time>2023-10-28T13:01:10.493Z</time>
      </trkpt>
      <trkpt lat="50.4044" lon="2.77604">
        <ele>63.2</ele>
        <time>2023-10-28T13:01:11.967Z</time>
      </trkpt>
      <trkpt lat="50.40435" lon="2.77586">
        <ele>63.8</ele>
        <time>2023-10-28T13:01:13.444Z</time>
      </trkpt>
      <trkpt lat="50.40432" lon="2.77578">
        <ele>63.8</ele>
        <time>2023-10-28T13:01:14.923Z</time>
      </trkpt>
      <trkpt lat="50.40429" lon="2.77566">
        <ele>64</ele>
        <time>2023-10-28T13:01:16.404Z</time>
      </trkpt>
      <trkpt lat="50.40427" lon="2.77557">
        <ele>64</ele>
        <time>2023-10-28T13:01:17.887Z</time>
      </trkpt>
      <trkpt lat="50.4042" lon="2.77552">
        <ele>64.6</ele>
        <time>2023-10-28T13:01:19.372Z</time>
      </trkpt>
      <trkpt lat="50.40419" lon="2.77529">
        <ele>64</ele>
        <time>2023-10-28T13:01:20.861Z</time>
      </trkpt>
      <trkpt lat="50.40415" lon="2.77514">
        <ele>64.2</ele>
        <time>2023-10-28T13:01:22.353Z</time>
      </trkpt>
      <trkpt lat="50.40411" lon="2.77501">
        <ele>64</ele>
        <time>2023-10-28T13:01:23.847Z</time>
      </trkpt>
      <trkpt lat="50.40406" lon="2.77483">
        <ele>64</ele>
        <time>2023-10-28T13:01:25.344Z</time>
      </trkpt>
      <trkpt lat="50.40396" lon="2.77448">
        <ele>65</ele>
        <time>2023-10-28T13:01:26.848Z</time>
      </trkpt>
      <trkpt lat="50.40392" lon="2.77437">
        <ele>65.4</ele>
        <time>2023-10-28T13:01:28.354Z</time>
      </trkpt>
      <trkpt lat="50.40382" lon="2.7741">
        <ele>65.4</ele>
        <time>2023-10-28T13:01:29.866Z</time>
      </trkpt>
      <trkpt lat="50.40372" lon="2.77383">
        <ele>65</ele>
        <time>2023-10-28T13:01:31.383Z</time>
      </trkpt>
      <trkpt lat="50.40365" lon="2.77364">
        <ele>64.8</ele>
        <time>2023-10-28T13:01:32.904Z</time>
      </trkpt>
      <trkpt lat="50.40361" lon="2.77344">
        <ele>64</ele>
        <time>2023-10-28T13:01:34.429Z</time>
      </trkpt>
      <trkpt lat="50.40359" lon="2.77337">
        <ele>63.8</ele>
        <time>2023-10-28T13:01:35.955Z</time>
      </trkpt>
      <trkpt lat="50.40355" lon="2.77322">
        <ele>63.8</ele>
        <time>2023-10-28T13:01:37.484Z</time>
      </trkpt>
      <trkpt lat="50.40348" lon="2.77295">
        <ele>63.8</ele>
        <time>2023-10-28T13:01:39.018Z</time>
      </trkpt>
      <trkpt lat="50.40335" lon="2.77259">
        <ele>64.4</ele>
        <time>2023-10-28T13:01:40.559Z</time>
      </trkpt>
      <trkpt lat="50.40323" lon="2.77226">
        <ele>63.4</ele>
        <time>2023-10-28T13:01:42.107Z</time>
      </trkpt>
      <trkpt lat="50.40321" lon="2.77217">
        <ele>63.2</ele>
        <time>2023-10-28T13:01:43.657Z</time>
      </trkpt>
      <trkpt lat="50.40319" lon="2.77207">
        <ele>62.6</ele>
        <time>2023-10-28T13:01:45.208Z</time>
      </trkpt>
      <trkpt lat="50.40315" lon="2.77193">
        <ele>62.4</ele>
        <time>2023-10-28T13:01:46.762Z</time>
      </trkpt>
      <trkpt lat="50.40297" lon="2.7717">
        <ele>63.6</ele>
        <time>2023-10-28T13:01:48.323Z</time>
      </trkpt>
      <trkpt lat="50.40295" lon="2.77163">
        <ele>63.6</ele>
        <time>2023-10-28T13:01:49.885Z</time>
      </trkpt>
      <trkpt lat="50.403" lon="2.77185">
        <ele>63.8</ele>
        <time>2023-10-28T13:01:51.451Z</time>
      </trkpt>
      <trkpt lat="50.40308" lon="2.77227">
        <ele>64.6</ele>
        <time>2023-10-28T13:01:53.024Z</time>
      </trkpt>
      <trkpt lat="50.40314" lon="2.77259">
        <ele>65.6</ele>
        <time>2023-10-28T13:01:54.603Z</time>
      </trkpt>
      <trkpt lat="50.40321" lon="2.77292">
        <ele>66.6</ele>
        <time>2023-10-28T13:01:56.188Z</time>
      </trkpt>
      <trkpt lat="50.4033" lon="2.77334">
        <ele>67</ele>
        <time>2023-10-28T13:01:57.781Z</time>
      </trkpt>
      <trkpt lat="50.40342" lon="2.77384">
        <ele>66.8</ele>
        <time>2023-10-28T13:01:59.383Z</time>
      </trkpt>
      <trkpt lat="50.40349" lon="2.77416">
        <ele>67.4</ele>
        <time>2023-10-28T13:02:00.991Z</time>
      </trkpt>
      <trkpt lat="50.40354" lon="2.77438">
        <ele>67.2</ele>
        <time>2023-10-28T13:02:02.603Z</time>
      </trkpt>
      <trkpt lat="50.40366" lon="2.77488">
        <ele>66</ele>
        <time>2023-10-28T13:02:04.225Z</time>
      </trkpt>
      <trkpt lat="50.40377" lon="2.77541">
        <ele>65.8</ele>
        <time>2023-10-28T13:02:05.856Z</time>
      </trkpt>
      <trkpt lat="50.40384" lon="2.77582">
        <ele>66.2</ele>
        <time>2023-10-28T13:02:07.495Z</time>
      </trkpt>
      <trkpt lat="50.4039" lon="2.77625">
        <ele>65.6</ele>
        <time>2023-10-28T13:02:09.141Z</time>
      </trkpt>
      <trkpt lat="50.40395" lon="2.77657">
        <ele>64.6</ele>
        <time>2023-10-28T13:02:10.793Z</time>
      </trkpt>
      <trkpt lat="50.40404" lon="2.77716">
        <ele>65.2</ele>
        <time>2023-10-28T13:02:12.456Z</time>
      </trkpt>
      <trkpt lat="50.40407" lon="2.77759">
        <ele>66.8</ele>
        <time>2023-10-28T13:02:14.126Z</time>
      </trkpt>
      <trkpt lat="50.40409" lon="2.77782">
        <ele>68.2</ele>
        <time>2023-10-28T13:02:15.800Z</time>
      </trkpt>
      <trkpt lat="50.40409" lon="2.77789">
        <ele>68.8</ele>
        <time>2023-10-28T13:02:17.476Z</time>
      </trkpt>
      <trkpt lat="50.40411" lon="2.7781">
        <ele>70</ele>
        <time>2023-10-28T13:02:19.155Z</time>
      </trkpt>
      <trkpt lat="50.40405" lon="2.77816">
        <ele>71.4</ele>
        <time>2023-10-28T13:02:20.836Z</time>
      </trkpt>
      <trkpt lat="50.40388" lon="2.77817">
        <ele>73.8</ele>
        <time>2023-10-28T13:02:22.522Z</time>
      </trkpt>
      <trkpt lat="50.40378" lon="2.77815">
        <ele>75</ele>
        <time>2023-10-28T13:02:24.211Z</time>
      </trkpt>
      <trkpt lat="50.40359" lon="2.77811">
        <ele>76.8</ele>
        <time>2023-10-28T13:02:25.905Z</time>
      </trkpt>
      <trkpt lat="50.40354" lon="2.7781">
        <ele>77.4</ele>
        <time>2023-10-28T13:02:27.600Z</time>
      </trkpt>
      <trkpt lat="50.40335" lon="2.77804">
        <ele>79.2</ele>
        <time>2023-10-28T13:02:29.301Z</time>
      </trkpt>
      <trkpt lat="50.40307" lon="2.77795">
        <ele>80.6</ele>
        <time>2023-10-28T13:02:31.010Z</time>
      </trkpt>
      <trkpt lat="50.40287" lon="2.77788">
        <ele>82.6</ele>
        <time>2023-10-28T13:02:32.724Z</time>
      </trkpt>
      <trkpt lat="50.40279" lon="2.77786">
        <ele>83.6</ele>
        <time>2023-10-28T13:02:34.440Z</time>
      </trkpt>
      <trkpt lat="50.40265" lon="2.77783">
        <ele>85</ele>
        <time>2023-10-28T13:02:36.160Z</time>
      </trkpt>
      <trkpt lat="50.40229" lon="2.77776">
        <ele>87</ele>
        <time>2023-10-28T13:02:37.890Z</time>
      </trkpt>
      <trkpt lat="50.40205" lon="2.77781">
        <ele>86.4</ele>
        <time>2023-10-28T13:02:39.627Z</time>
      </trkpt>
      <trkpt lat="50.40165" lon="2.77786">
        <ele>85</ele>
        <time>2023-10-28T13:02:41.375Z</time>
      </trkpt>
      <trkpt lat="50.40133" lon="2.7778">
        <ele>83</ele>
        <time>2023-10-28T13:02:43.132Z</time>
      </trkpt>
      <trkpt lat="50.40104" lon="2.77774">
        <ele>81</ele>
        <time>2023-10-28T13:02:44.896Z</time>
      </trkpt>
      <trkpt lat="50.40081" lon="2.77768">
        <ele>80.6</ele>
        <time>2023-10-28T13:02:46.667Z</time>
      </trkpt>
      <trkpt lat="50.40052" lon="2.77746">
        <ele>83.8</ele>
        <time>2023-10-28T13:02:48.447Z</time>
      </trkpt>
      <trkpt lat="50.4003" lon="2.77726">
        <ele>85.6</ele>
        <time>2023-10-28T13:02:50.234Z</time>
      </trkpt>
      <trkpt lat="50.40019" lon="2.77716">
        <ele>87</ele>
        <time>2023-10-28T13:02:52.024Z</time>
      </trkpt>
      <trkpt lat="50.4" lon="2.77698">
        <ele>89.8</ele>
        <time>2023-10-28T13:02:53.820Z</time>
      </trkpt>
      <trkpt lat="50.39977" lon="2.77695">
        <ele>88.6</ele>
        <time>2023-10-28T13:02:55.623Z</time>
      </trkpt>
      <trkpt lat="50.39935" lon="2.77691">
        <ele>84.6</ele>
        <time>2023-10-28T13:02:57.437Z</time>
      </trkpt>
      <trkpt lat="50.39925" lon="2.77688">
        <ele>83.6</ele>
        <time>2023-10-28T13:02:59.254Z</time>
      </trkpt>
      <trkpt lat="50.39892" lon="2.77691">
        <ele>78</ele>
        <time>2023-10-28T13:03:01.080Z</time>
      </trkpt>
      <trkpt lat="50.39859" lon="2.77695">
        <ele>73.6</ele>
        <time>2023-10-28T13:03:02.915Z</time>
      </trkpt>
      <trkpt lat="50.39808" lon="2.77705">
        <ele>70</ele>
        <time>2023-10-28T13:03:04.764Z</time>
      </trkpt>
      <trkpt lat="50.3978" lon="2.77701">
        <ele>69.2</ele>
        <time>2023-10-28T13:03:06.621Z</time>
      </trkpt>
      <trkpt lat="50.39744" lon="2.77672">
        <ele>67</ele>
        <time>2023-10-28T13:03:08.489Z</time>
      </trkpt>
      <trkpt lat="50.39697" lon="2.77627">
        <ele>66.8</ele>
        <time>2023-10-28T13:03:10.372Z</time>
      </trkpt>
      <trkpt lat="50.39666" lon="2.77598">
        <ele>67.8</ele>
        <time>2023-10-28T13:03:12.265Z</time>
      </trkpt>
      <trkpt lat="50.3965" lon="2.77582">
        <ele>67.4</ele>
        <time>2023-10-28T13:03:14.163Z</time>
      </trkpt>
      <trkpt lat="50.39635" lon="2.77567">
        <ele>67</ele>
        <time>2023-10-28T13:03:16.066Z</time>
      </trkpt>
      <trkpt lat="50.39636" lon="2.77551">
        <ele>67.4</ele>
        <time>2023-10-28T13:03:17.971Z</time>
      </trkpt>
      <trkpt lat="50.39629" lon="2.77533">
        <ele>67.8</ele>
        <time>2023-10-28T13:03:19.880Z</time>
      </trkpt>
      <trkpt lat="50.3962" lon="2.77511">
        <ele>67.4</ele>
        <time>2023-10-28T13:03:21.794Z</time>
      </trkpt>
      <trkpt lat="50.39606" lon="2.77479">
        <ele>67.2</ele>
        <time>2023-10-28T13:03:23.714Z</time>
      </trkpt>
      <trkpt lat="50.39597" lon="2.77458">
        <ele>68.2</ele>
        <time>2023-10-28T13:03:25.639Z</time>
      </trkpt>
      <trkpt lat="50.3958" lon="2.77418">
        <ele>70</ele>
        <time>2023-10-28T13:03:27.572Z</time>
      </trkpt>
      <trkpt lat="50.3955" lon="2.77359">
        <ele>71</ele>
        <time>2023-10-28T13:03:29.518Z</time>
      </trkpt>
      <trkpt lat="50.39525" lon="2.77311">
        <ele>71</ele>
        <time>2023-10-28T13:03:31.475Z</time>
      </trkpt>
      <trkpt lat="50.39482" lon="2.77265">
        <ele>72.2</ele>
        <time>2023-10-28T13:03:33.446Z</time>
      </trkpt>
      <trkpt lat="50.39435" lon="2.77214">
        <ele>73</ele>
        <time>2023-10-28T13:03:35.433Z</time>
      </trkpt>
      <trkpt lat="50.3941" lon="2.77184">
        <ele>72.8</ele>
        <time>2023-10-28T13:03:37.429Z</time>
      </trkpt>
      <trkpt lat="50.39378" lon="2.77149">
        <ele>72</ele>
        <time>2023-10-28T13:03:39.435Z</time>
      </trkpt>
      <trkpt lat="50.39338" lon="2.77105">
        <ele>72.8</ele>
        <time>2023-10-28T13:03:41.455Z</time>
      </trkpt>
      <trkpt lat="50.39311" lon="2.77075">
        <ele>75.2</ele>
        <time>2023-10-28T13:03:43.484Z</time>
      </trkpt>
      <trkpt lat="50.39261" lon="2.77038">
        <ele>79.4</ele>
        <time>2023-10-28T13:03:45.528Z</time>
      </trkpt>
      <trkpt lat="50.39236" lon="2.77023">
        <ele>80.4</ele>
        <time>2023-10-28T13:03:47.579Z</time>
      </trkpt>
      <trkpt lat="50.39221" lon="2.77048">
        <ele>80.4</ele>
        <time>2023-10-28T13:03:49.636Z</time>
      </trkpt>
      <trkpt lat="50.39177" lon="2.77125">
        <ele>83.6</ele>
        <time>2023-10-28T13:03:51.711Z</time>
      </trkpt>
      <trkpt lat="50.39145" lon="2.77176">
        <ele>85.6</ele>
        <time>2023-10-28T13:03:53.799Z</time>
      </trkpt>
      <trkpt lat="50.39116" lon="2.7722">
        <ele>86.8</ele>
        <time>2023-10-28T13:03:55.898Z</time>
      </trkpt>
      <trkpt lat="50.39083" lon="2.77274">
        <ele>87</ele>
        <time>2023-10-28T13:03:58.010Z</time>
      </trkpt>
      <trkpt lat="50.39059" lon="2.77318">
        <ele>84.2</ele>
        <time>2023-10-28T13:04:00.132Z</time>
      </trkpt>
      <trkpt lat="50.39039" lon="2.77354">
        <ele>82</ele>
        <time>2023-10-28T13:04:02.262Z</time>
      </trkpt>
      <trkpt lat="50.39015" lon="2.77385">
        <ele>81</ele>
        <time>2023-10-28T13:04:04.401Z</time>
      </trkpt>
      <trkpt lat="50.39001" lon="2.77401">
        <ele>81</ele>
        <time>2023-10-28T13:04:06.545Z</time>
      </trkpt>
      <trkpt lat="50.38948" lon="2.7746">
        <ele>79.2</ele>
        <time>2023-10-28T13:04:08.706Z</time>
      </trkpt>
      <trkpt lat="50.3891" lon="2.77492">
        <ele>77.2</ele>
        <time>2023-10-28T13:04:10.879Z</time>
      </trkpt>
      <trkpt lat="50.38885" lon="2.77508">
        <ele>78</ele>
        <time>2023-10-28T13:04:13.059Z</time>
      </trkpt>
      <trkpt lat="50.38873" lon="2.77516">
        <ele>77.8</ele>
        <time>2023-10-28T13:04:15.243Z</time>
      </trkpt>
      <trkpt lat="50.3885" lon="2.77452">
        <ele>80.4</ele>
        <time>2023-10-28T13:04:17.440Z</time>
      </trkpt>
      <trkpt lat="50.38842" lon="2.77424">
        <ele>80.6</ele>
        <time>2023-10-28T13:04:19.642Z</time>
      </trkpt>
      <trkpt lat="50.38836" lon="2.77403">
        <ele>81.6</ele>
        <time>2023-10-28T13:04:21.848Z</time>
      </trkpt>
      <trkpt lat="50.38824" lon="2.77358">
        <ele>84.2</ele>
        <time>2023-10-28T13:04:24.063Z</time>
      </trkpt>
      <trkpt lat="50.38823" lon="2.77315">
        <ele>87.4</ele>
        <time>2023-10-28T13:04:26.285Z</time>
      </trkpt>
      <trkpt lat="50.38828" lon="2.77255">
        <ele>90.2</ele>
        <time>2023-10-28T13:04:28.518Z</time>
      </trkpt>
      <trkpt lat="50.38823" lon="2.77196">
        <ele>91</ele>
        <time>2023-10-28T13:04:30.761Z</time>
      </trkpt>
      <trkpt lat="50.38808" lon="2.77146">
        <ele>94.4</ele>
        <time>2023-10-28T13:04:33.014Z</time>
      </trkpt>
      <trkpt lat="50.38783" lon="2.77111">
        <ele>98.8</ele>
        <time>2023-10-28T13:04:35.276Z</time>
      </trkpt>
      <trkpt lat="50.38761" lon="2.7708">
        <ele>101.6</ele>
        <time>2023-10-28T13:04:37.546Z</time>
      </trkpt>
      <trkpt lat="50.38732" lon="2.77038">
        <ele>104</ele>
        <time>2023-10-28T13:04:39.827Z</time>
      </trkpt>
      <trkpt lat="50.38712" lon="2.77014">
        <ele>105.8</ele>
        <time>2023-10-28T13:04:42.115Z</time>
      </trkpt>
      <trkpt lat="50.387" lon="2.77012">
        <ele>107</ele>
        <time>2023-10-28T13:04:44.406Z</time>
      </trkpt>
      <trkpt lat="50.38696" lon="2.77011">
        <ele>107.4</ele>
        <time>2023-10-28T13:04:46.698Z</time>
      </trkpt>
      <trkpt lat="50.3869" lon="2.7701">
        <ele>108.6</ele>
        <time>2023-10-28T13:04:48.992Z</time>
      </trkpt>
      <trkpt lat="50.3863" lon="2.77062">
        <ele>119.6</ele>
        <time>2023-10-28T13:04:51.305Z</time>
      </trkpt>
      <trkpt lat="50.38605" lon="2.77066">
        <ele>122.2</ele>
        <time>2023-10-28T13:04:53.625Z</time>
      </trkpt>
      <trkpt lat="50.38577" lon="2.77069">
        <ele>125</ele>
        <time>2023-10-28T13:04:55.952Z</time>
      </trkpt>
      <trkpt lat="50.38556" lon="2.77066">
        <ele>126.6</ele>
        <time>2023-10-28T13:04:58.285Z</time>
      </trkpt>
      <trkpt lat="50.38523" lon="2.77062">
        <ele>130.2</ele>
        <time>2023-10-28T13:05:00.627Z</time>
      </trkpt>
      <trkpt lat="50.38495" lon="2.77059">
        <ele>132</ele>
        <time>2023-10-28T13:05:02.977Z</time>
      </trkpt>
      <trkpt lat="50.3846" lon="2.77055">
        <ele>132</ele>
        <time>2023-10-28T13:05:05.336Z</time>
      </trkpt>
      <trkpt lat="50.38431" lon="2.77053">
        <ele>132</ele>
        <time>2023-10-28T13:05:07.703Z</time>
      </trkpt>
      <trkpt lat="50.38404" lon="2.7705">
        <ele>132.6</ele>
        <time>2023-10-28T13:05:10.078Z</time>
      </trkpt>
      <trkpt lat="50.38385" lon="2.77048">
        <ele>133.6</ele>
        <time>2023-10-28T13:05:12.458Z</time>
      </trkpt>
      <trkpt lat="50.38359" lon="2.77046">
        <ele>135.6</ele>
        <time>2023-10-28T13:05:14.845Z</time>
      </trkpt>
      <trkpt lat="50.38348" lon="2.77044">
        <ele>136</ele>
        <time>2023-10-28T13:05:17.235Z</time>
      </trkpt>
      <trkpt lat="50.38341" lon="2.77044">
        <ele>136.2</ele>
        <time>2023-10-28T13:05:19.627Z</time>
      </trkpt>
      <trkpt lat="50.38333" lon="2.77043">
        <ele>136.8</ele>
        <time>2023-10-28T13:05:22.021Z</time>
      </trkpt>
      <trkpt lat="50.38317" lon="2.77041">
        <ele>137</ele>
        <time>2023-10-28T13:05:24.419Z</time>
      </trkpt>
      <trkpt lat="50.383" lon="2.7704">
        <ele>137</ele>
        <time>2023-10-28T13:05:26.822Z</time>
      </trkpt>
      <trkpt lat="50.38272" lon="2.77037">
        <ele>138.2</ele>
        <time>2023-10-28T13:05:29.233Z</time>
      </trkpt>
      <trkpt lat="50.38241" lon="2.77037">
        <ele>140.4</ele>
        <time>2023-10-28T13:05:31.652Z</time>
      </trkpt>
      <trkpt lat="50.38209" lon="2.77027">
        <ele>142</ele>
        <time>2023-10-28T13:05:34.080Z</time>
      </trkpt>
      <trkpt lat="50.38171" lon="2.77018">
        <ele>142</ele>
        <time>2023-10-28T13:05:36.519Z</time>
      </trkpt>
      <trkpt lat="50.38136" lon="2.77011">
        <ele>142</ele>
        <time>2023-10-28T13:05:38.967Z</time>
      </trkpt>
      <trkpt lat="50.381" lon="2.77006">
        <ele>144.2</ele>
        <time>2023-10-28T13:05:41.425Z</time>
      </trkpt>
      <trkpt lat="50.38062" lon="2.77002">
        <ele>144.8</ele>
        <time>2023-10-28T13:05:43.894Z</time>
      </trkpt>
      <trkpt lat="50.38027" lon="2.77005">
        <ele>144.2</ele>
        <time>2023-10-28T13:05:46.372Z</time>
      </trkpt>
      <trkpt lat="50.37996" lon="2.76979">
        <ele>143</ele>
        <time>2023-10-28T13:05:48.860Z</time>
      </trkpt>
      <trkpt lat="50.37989" lon="2.7697">
        <ele>143.6</ele>
        <time>2023-10-28T13:05:51.350Z</time>
      </trkpt>
      <trkpt lat="50.37998" lon="2.76982">
        <ele>143</ele>
        <time>2023-10-28T13:05:53.843Z</time>
      </trkpt>
      <trkpt lat="50.37993" lon="2.76974">
        <ele>143.2</ele>
        <time>2023-10-28T13:05:56.338Z</time>
      </trkpt>
      <trkpt lat="50.38007" lon="2.7693">
        <ele>143</ele>
        <time>2023-10-28T13:05:58.842Z</time>
      </trkpt>
      <trkpt lat="50.38018" lon="2.76912">
        <ele>142.8</ele>
        <time>2023-10-28T13:06:01.350Z</time>
      </trkpt>
      <trkpt lat="50.38049" lon="2.76885">
        <ele>142.6</ele>
        <time>2023-10-28T13:06:03.868Z</time>
      </trkpt>
      <trkpt lat="50.38091" lon="2.7684">
        <ele>143</ele>
        <time>2023-10-28T13:06:06.400Z</time>
      </trkpt>
      <trkpt lat="50.38138" lon="2.76802">
        <ele>142</ele>
        <time>2023-10-28T13:06:08.946Z</time>
      </trkpt>
      <trkpt lat="50.3816" lon="2.76788">
        <ele>142</ele>
        <time>2023-10-28T13:06:11.499Z</time>
      </trkpt>
      <trkpt lat="50.38198" lon="2.76771">
        <ele>141.2</ele>
        <time>2023-10-28T13:06:14.062Z</time>
      </trkpt>
      <trkpt lat="50.38252" lon="2.7675">
        <ele>140</ele>
        <time>2023-10-28T13:06:16.641Z</time>
      </trkpt>
      <trkpt lat="50.38323" lon="2.7672">
        <ele>137.8</ele>
        <time>2023-10-28T13:06:19.240Z</time>
      </trkpt>
      <trkpt lat="50.3838" lon="2.76698">
        <ele>134.4</ele>
        <time>2023-10-28T13:06:21.855Z</time>
      </trkpt>
      <trkpt lat="50.38393" lon="2.76692">
        <ele>134.2</ele>
        <time>2023-10-28T13:06:24.474Z</time>
      </trkpt>
      <trkpt lat="50.38383" lon="2.76683">
        <ele>134.8</ele>
        <time>2023-10-28T13:06:27.096Z</time>
      </trkpt>
      <trkpt lat="50.38376" lon="2.76672">
        <ele>135.4</ele>
        <time>2023-10-28T13:06:29.720Z</time>
      </trkpt>
      <trkpt lat="50.38364" lon="2.7665">
        <ele>135.8</ele>
        <time>2023-10-28T13:06:32.349Z</time>
      </trkpt>
      <trkpt lat="50.38347" lon="2.7662">
        <ele>137.8</ele>
        <time>2023-10-28T13:06:34.985Z</time>
      </trkpt>
      <trkpt lat="50.38321" lon="2.76573">
        <ele>141.8</ele>
        <time>2023-10-28T13:06:37.632Z</time>
      </trkpt>
      <trkpt lat="50.38318" lon="2.76555">
        <ele>143.2</ele>
        <time>2023-10-28T13:06:40.282Z</time>
      </trkpt>
      <trkpt lat="50.38326" lon="2.76499">
        <ele>142.6</ele>
        <time>2023-10-28T13:06:42.943Z</time>
      </trkpt>
      <trkpt lat="50.38334" lon="2.7645">
        <ele>142.6</ele>
        <time>2023-10-28T13:06:45.612Z</time>
      </trkpt>
      <trkpt lat="50.38345" lon="2.76376">
        <ele>140.4</ele>
        <time>2023-10-28T13:06:48.295Z</time>
      </trkpt>
      <trkpt lat="50.38352" lon="2.76333">
        <ele>140.8</ele>
        <time>2023-10-28T13:06:50.985Z</time>
      </trkpt>
      <trkpt lat="50.38361" lon="2.76276">
        <ele>140.8</ele>
        <time>2023-10-28T13:06:53.686Z</time>
      </trkpt>
      <trkpt lat="50.38373" lon="2.76202">
        <ele>140.8</ele>
        <time>2023-10-28T13:06:56.400Z</time>
      </trkpt>
      <trkpt lat="50.38384" lon="2.76139">
        <ele>142</ele>
        <time>2023-10-28T13:06:59.125Z</time>
      </trkpt>
      <trkpt lat="50.38392" lon="2.76078">
        <ele>140.4</ele>
        <time>2023-10-28T13:07:01.861Z</time>
      </trkpt>
      <trkpt lat="50.38392" lon="2.76023">
        <ele>139.2</ele>
        <time>2023-10-28T13:07:04.607Z</time>
      </trkpt>
      <trkpt lat="50.38397" lon="2.75954">
        <ele>138.4</ele>
        <time>2023-10-28T13:07:07.365Z</time>
      </trkpt>
      <trkpt lat="50.38409" lon="2.759">
        <ele>138</ele>
        <time>2023-10-28T13:07:10.133Z</time>
      </trkpt>
      <trkpt lat="50.38441" lon="2.75845">
        <ele>136.2</ele>
        <time>2023-10-28T13:07:12.914Z</time>
      </trkpt>
      <trkpt lat="50.38464" lon="2.75815">
        <ele>135.2</ele>
        <time>2023-10-28T13:07:15.703Z</time>
      </trkpt>
      <trkpt lat="50.3852" lon="2.7574">
        <ele>134.2</ele>
        <time>2023-10-28T13:07:18.512Z</time>
      </trkpt>
      <trkpt lat="50.38542" lon="2.7571">
        <ele>132</ele>
        <time>2023-10-28T13:07:21.329Z</time>
      </trkpt>
      <trkpt lat="50.38551" lon="2.75686">
        <ele>130.4</ele>
        <time>2023-10-28T13:07:24.151Z</time>
      </trkpt>
      <trkpt lat="50.38557" lon="2.75668">
        <ele>130</ele>
        <time>2023-10-28T13:07:26.977Z</time>
      </trkpt>
      <trkpt lat="50.38564" lon="2.75646">
        <ele>130</ele>
        <time>2023-10-28T13:07:29.807Z</time>
      </trkpt>
      <trkpt lat="50.38578" lon="2.75601">
        <ele>130</ele>
        <time>2023-10-28T13:07:32.646Z</time>
      </trkpt>
      <trkpt lat="50.38591" lon="2.75562">
        <ele>129</ele>
        <time>2023-10-28T13:07:35.493Z</time>
      </trkpt>
      <trkpt lat="50.38608" lon="2.75508">
        <ele>123</ele>
        <time>2023-10-28T13:07:38.350Z</time>
      </trkpt>
      <trkpt lat="50.38643" lon="2.75398">
        <ele>109.6</ele>
        <time>2023-10-28T13:07:41.229Z</time>
      </trkpt>
      <trkpt lat="50.38657" lon="2.75371">
        <ele>108</ele>
        <time>2023-10-28T13:07:44.114Z</time>
      </trkpt>
      <trkpt lat="50.38678" lon="2.75338">
        <ele>106.2</ele>
        <time>2023-10-28T13:07:47.007Z</time>
      </trkpt>
      <trkpt lat="50.38717" lon="2.75292">
        <ele>101.2</ele>
        <time>2023-10-28T13:07:49.913Z</time>
      </trkpt>
      <trkpt lat="50.3876" lon="2.75245">
        <ele>98.6</ele>
        <time>2023-10-28T13:07:52.833Z</time>
      </trkpt>
      <trkpt lat="50.38795" lon="2.75201">
        <ele>96.2</ele>
        <time>2023-10-28T13:07:55.766Z</time>
      </trkpt>
      <trkpt lat="50.38823" lon="2.75129">
        <ele>92.47</ele>
        <time>2023-10-28T13:07:58.713Z</time>
      </trkpt>
      <trkpt lat="50.38826" lon="2.7512">
        <ele>92</ele>
        <time>2023-10-28T13:08:01.662Z</time>
      </trkpt>
      <trkpt lat="50.38844" lon="2.75073">
        <ele>89</ele>
        <time>2023-10-28T13:08:04.621Z</time>
      </trkpt>
      <trkpt lat="50.38867" lon="2.75031">
        <ele>86.2</ele>
        <time>2023-10-28T13:08:07.590Z</time>
      </trkpt>
      <trkpt lat="50.38878" lon="2.7502">
        <ele>85.6</ele>
        <time>2023-10-28T13:08:10.562Z</time>
      </trkpt>
      <trkpt lat="50.38907" lon="2.75017">
        <ele>85.2</ele>
        <time>2023-10-28T13:08:13.542Z</time>
      </trkpt>
      <trkpt lat="50.38937" lon="2.75032">
        <ele>84.2</ele>
        <time>2023-10-28T13:08:16.531Z</time>
      </trkpt>
      <trkpt lat="50.38953" lon="2.75055">
        <ele>85</ele>
        <time>2023-10-28T13:08:19.526Z</time>
      </trkpt>
      <trkpt lat="50.38965" lon="2.75073">
        <ele>85.2</ele>
        <time>2023-10-28T13:08:22.525Z</time>
      </trkpt>
      <trkpt lat="50.38977" lon="2.75088">
        <ele>85</ele>
        <time>2023-10-28T13:08:25.528Z</time>
      </trkpt>
      <trkpt lat="50.38992" lon="2.75108">
        <ele>85.4</ele>
        <time>2023-10-28T13:08:28.537Z</time>
      </trkpt>
      <trkpt lat="50.39004" lon="2.75125">
        <ele>85.4</ele>
        <time>2023-10-28T13:08:31.550Z</time>
      </trkpt>
      <trkpt lat="50.39016" lon="2.75142">
        <ele>85.2</ele>
        <time>2023-10-28T13:08:34.568Z</time>
      </trkpt>
      <trkpt lat="50.39031" lon="2.75165">
        <ele>85.4</ele>
        <time>2023-10-28T13:08:37.591Z</time>
      </trkpt>
      <trkpt lat="50.39059" lon="2.75214">
        <ele>88.6</ele>
        <time>2023-10-28T13:08:40.626Z</time>
      </trkpt>
      <trkpt lat="50.39073" lon="2.75238">
        <ele>91</ele>
        <time>2023-10-28T13:08:43.666Z</time>
      </trkpt>
      <trkpt lat="50.39096" lon="2.75284">
        <ele>93.2</ele>
        <time>2023-10-28T13:08:46.717Z</time>
      </trkpt>
      <trkpt lat="50.39119" lon="2.75322">
        <ele>91.8</ele>
        <time>2023-10-28T13:08:49.777Z</time>
      </trkpt>
      <trkpt lat="50.39144" lon="2.75358">
        <ele>91.4</ele>
        <time>2023-10-28T13:08:52.846Z</time>
      </trkpt>
      <trkpt lat="50.39169" lon="2.75392">
        <ele>95.2</ele>
        <time>2023-10-28T13:08:55.924Z</time>
      </trkpt>
      <trkpt lat="50.39198" lon="2.75429">
        <ele>100.4</ele>
        <time>2023-10-28T13:08:59.012Z</time>
      </trkpt>
      <trkpt lat="50.39229" lon="2.75462">
        <ele>103.2</ele>
        <time>2023-10-28T13:09:02.111Z</time>
      </trkpt>
      <trkpt lat="50.39257" lon="2.7549">
        <ele>105.4</ele>
        <time>2023-10-28T13:09:05.219Z</time>
      </trkpt>
      <trkpt lat="50.39264" lon="2.75497">
        <ele>105.6</ele>
        <time>2023-10-28T13:09:08.329Z</time>
      </trkpt>
      <trkpt lat="50.39284" lon="2.75454">
        <ele>106.8</ele>
        <time>2023-10-28T13:09:11.448Z</time>
      </trkpt>
      <trkpt lat="50.39296" lon="2.75409">
        <ele>105.2</ele>
        <time>2023-10-28T13:09:14.576Z</time>
      </trkpt>
      <trkpt lat="50.39301" lon="2.75357">
        <ele>100.8</ele>
        <time>2023-10-28T13:09:17.713Z</time>
      </trkpt>
      <trkpt lat="50.39303" lon="2.75339">
        <ele>97.8</ele>
        <time>2023-10-28T13:09:20.853Z</time>
      </trkpt>
      <trkpt lat="50.39305" lon="2.75327">
        <ele>95.8</ele>
        <time>2023-10-28T13:09:23.995Z</time>
      </trkpt>
      <trkpt lat="50.39307" lon="2.75306">
        <ele>92.2</ele>
        <time>2023-10-28T13:09:27.141Z</time>
      </trkpt>
      <trkpt lat="50.39309" lon="2.75293">
        <ele>90</ele>
        <time>2023-10-28T13:09:30.289Z</time>
      </trkpt>
      <trkpt lat="50.39317" lon="2.75275">
        <ele>88</ele>
        <time>2023-10-28T13:09:33.441Z</time>
      </trkpt>
      <trkpt lat="50.39337" lon="2.75242">
        <ele>83.8</ele>
        <time>2023-10-28T13:09:36.601Z</time>
      </trkpt>
      <trkpt lat="50.39342" lon="2.75233">
        <ele>83.2</ele>
        <time>2023-10-28T13:09:39.763Z</time>
      </trkpt>
      <trkpt lat="50.39344" lon="2.7521">
        <ele>82</ele>
        <time>2023-10-28T13:09:42.929Z</time>
      </trkpt>
      <trkpt lat="50.3934" lon="2.75179">
        <ele>80.4</ele>
        <time>2023-10-28T13:09:46.101Z</time>
      </trkpt>
      <trkpt lat="50.39336" lon="2.75141">
        <ele>77.8</ele>
        <time>2023-10-28T13:09:49.280Z</time>
      </trkpt>
      <trkpt lat="50.39334" lon="2.75131">
        <ele>77.4</ele>
        <time>2023-10-28T13:09:52.461Z</time>
      </trkpt>
      <trkpt lat="50.39325" lon="2.75134">
        <ele>77.6</ele>
        <time>2023-10-28T13:09:55.644Z</time>
      </trkpt>
      <trkpt lat="50.39306" lon="2.75139">
        <ele>77.8</ele>
        <time>2023-10-28T13:09:58.832Z</time>
      </trkpt>
      <trkpt lat="50.3929" lon="2.75144">
        <ele>77.8</ele>
        <time>2023-10-28T13:10:02.025Z</time>
      </trkpt>
      <trkpt lat="50.39269" lon="2.75151">
        <ele>78.2</ele>
        <time>2023-10-28T13:10:05.224Z</time>
      </trkpt>
      <trkpt lat="50.39237" lon="2.75161">
        <ele>77.4</ele>
        <time>2023-10-28T13:10:08.432Z</time>
      </trkpt>
      <trkpt lat="50.39202" lon="2.75172">
        <ele>75.6</ele>
        <time>2023-10-28T13:10:11.650Z</time>
      </trkpt>
      <trkpt lat="50.39165" lon="2.75176">
        <ele>74.2</ele>
        <time>2023-10-28T13:10:14.877Z</time>
      </trkpt>
      <trkpt lat="50.39126" lon="2.75171">
        <ele>77</ele>
        <time>2023-10-28T13:10:18.115Z</time>
      </trkpt>
      <trkpt lat="50.391" lon="2.75159">
        <ele>78.8</ele>
        <time>2023-10-28T13:10:21.361Z</time>
      </trkpt>
      <trkpt lat="50.39075" lon="2.75144">
        <ele>80.2</ele>
        <time>2023-10-28T13:10:24.614Z</time>
      </trkpt>
      <trkpt lat="50.39033" lon="2.75119">
        <ele>80.8</ele>
        <time>2023-10-28T13:10:27.879Z</time>
      </trkpt>
      <trkpt lat="50.39006" lon="2.75104">
        <ele>82.8</ele>
        <time>2023-10-28T13:10:31.152Z</time>
      </trkpt>
      <trkpt lat="50.38994" lon="2.75097">
        <ele>84</ele>
        <time>2023-10-28T13:10:34.429Z</time>
      </trkpt>
      <trkpt lat="50.38972" lon="2.75083">
        <ele>85</ele>
        <time>2023-10-28T13:10:37.712Z</time>
      </trkpt>
      <trkpt lat="50.38953" lon="2.75055">
        <ele>85</ele>
        <time>2023-10-28T13:10:41.002Z</time>
      </trkpt>
      <trkpt lat="50.38932" lon="2.75022">
        <ele>83.6</ele>
        <time>2023-10-28T13:10:44.300Z</time>
      </trkpt>
      <trkpt lat="50.38901" lon="2.75016">
        <ele>85</ele>
        <time>2023-10-28T13:10:47.607Z</time>
      </trkpt>
      <trkpt lat="50.38896" lon="2.74992">
        <ele>83</ele>
        <time>2023-10-28T13:10:50.918Z</time>
      </trkpt>
      <trkpt lat="50.38894" lon="2.74988">
        <ele>82.6</ele>
        <time>2023-10-28T13:10:54.230Z</time>
      </trkpt>
      <trkpt lat="50.38889" lon="2.74978">
        <ele>81.8</ele>
        <time>2023-10-28T13:10:57.544Z</time>
      </trkpt>
      <trkpt lat="50.38881" lon="2.74957">
        <ele>80.6</ele>
        <time>2023-10-28T13:11:00.863Z</time>
      </trkpt>
      <trkpt lat="50.38838" lon="2.74916">
        <ele>81.2</ele>
        <time>2023-10-28T13:11:04.195Z</time>
      </trkpt>
      <trkpt lat="50.38808" lon="2.74897">
        <ele>83.4</ele>
        <time>2023-10-28T13:11:07.536Z</time>
      </trkpt>
      <trkpt lat="50.38794" lon="2.74888">
        <ele>85</ele>
        <time>2023-10-28T13:11:10.881Z</time>
      </trkpt>
      <trkpt lat="50.38785" lon="2.74875">
        <ele>86</ele>
        <time>2023-10-28T13:11:14.230Z</time>
      </trkpt>
      <trkpt lat="50.38771" lon="2.74845">
        <ele>87.2</ele>
        <time>2023-10-28T13:11:17.585Z</time>
      </trkpt>
      <trkpt lat="50.38768" lon="2.74831">
        <ele>87.6</ele>
        <time>2023-10-28T13:11:20.943Z</time>
      </trkpt>
      <trkpt lat="50.38763" lon="2.74829">
        <ele>87.8</ele>
        <time>2023-10-28T13:11:24.302Z</time>
      </trkpt>
      <trkpt lat="50.3874" lon="2.7484">
        <ele>88.6</ele>
        <time>2023-10-28T13:11:27.668Z</time>
      </trkpt>
      <trkpt lat="50.38714" lon="2.74851">
        <ele>90.6</ele>
        <time>2023-10-28T13:11:31.041Z</time>
      </trkpt>
      <trkpt lat="50.3867" lon="2.74867">
        <ele>92</ele>
        <time>2023-10-28T13:11:34.426Z</time>
      </trkpt>
      <trkpt lat="50.38629" lon="2.74884">
        <ele>91</ele>
        <time>2023-10-28T13:11:37.823Z</time>
      </trkpt>
      <trkpt lat="50.38591" lon="2.74909">
        <ele>91.6</ele>
        <time>2023-10-28T13:11:41.231Z</time>
      </trkpt>
      <trkpt lat="50.38559" lon="2.74939">
        <ele>93.6</ele>
        <time>2023-10-28T13:11:44.649Z</time>
      </trkpt>
      <trkpt lat="50.38516" lon="2.74985">
        <ele>94.4</ele>
        <time>2023-10-28T13:11:48.082Z</time>
      </trkpt>
      <trkpt lat="50.38481" lon="2.75043">
        <ele>94.2</ele>
        <time>2023-10-28T13:11:51.529Z</time>
      </trkpt>
      <trkpt lat="50.38449" lon="2.75085">
        <ele>96.2</ele>
        <time>2023-10-28T13:11:54.987Z</time>
      </trkpt>
      <trkpt lat="50.38396" lon="2.75102">
        <ele>97</ele>
        <time>2023-10-28T13:11:58.460Z</time>
      </trkpt>
      <trkpt lat="50.38341" lon="2.7511">
        <ele>96</ele>
        <time>2023-10-28T13:12:01.948Z</time>
      </trkpt>
      <trkpt lat="50.38329" lon="2.75117">
        <ele>96</ele>
        <time>2023-10-28T13:12:05.440Z</time>
      </trkpt>
      <trkpt lat="50.38308" lon="2.75127">
        <ele>96</ele>
        <time>2023-10-28T13:12:08.937Z</time>
      </trkpt>
      <trkpt lat="50.383" lon="2.75109">
        <ele>96</ele>
        <time>2023-10-28T13:12:12.438Z</time>
      </trkpt>
      <trkpt lat="50.3829" lon="2.75084">
        <ele>96.4</ele>
        <time>2023-10-28T13:12:15.945Z</time>
      </trkpt>
      <trkpt lat="50.38276" lon="2.75045">
        <ele>98.2</ele>
        <time>2023-10-28T13:12:19.459Z</time>
      </trkpt>
      <trkpt lat="50.38266" lon="2.75018">
        <ele>100.6</ele>
        <time>2023-10-28T13:12:22.979Z</time>
      </trkpt>
      <trkpt lat="50.38261" lon="2.75005">
        <ele>101.6</ele>
        <time>2023-10-28T13:12:26.501Z</time>
      </trkpt>
      <trkpt lat="50.38257" lon="2.74993">
        <ele>102.6</ele>
        <time>2023-10-28T13:12:30.026Z</time>
      </trkpt>
      <trkpt lat="50.38252" lon="2.74979">
        <ele>103.8</ele>
        <time>2023-10-28T13:12:33.554Z</time>
      </trkpt>
      <trkpt lat="50.38247" lon="2.74965">
        <ele>105</ele>
        <time>2023-10-28T13:12:37.084Z</time>
      </trkpt>
      <trkpt lat="50.38239" lon="2.74945">
        <ele>107</ele>
        <time>2023-10-28T13:12:40.619Z</time>
      </trkpt>
      <trkpt lat="50.38235" lon="2.74933">
        <ele>108.4</ele>
        <time>2023-10-28T13:12:44.156Z</time>
      </trkpt>
      <trkpt lat="50.38224" lon="2.74905">
        <ele>110.4</ele>
        <time>2023-10-28T13:12:47.699Z</time>
      </trkpt>
      <trkpt lat="50.38215" lon="2.74879">
        <ele>112</ele>
        <time>2023-10-28T13:12:51.247Z</time>
      </trkpt>
      <trkpt lat="50.38207" lon="2.7486">
        <ele>113.2</ele>
        <time>2023-10-28T13:12:54.799Z</time>
      </trkpt>
      <trkpt lat="50.38185" lon="2.74816">
        <ele>116.2</ele>
        <time>2023-10-28T13:12:58.361Z</time>
      </trkpt>
      <trkpt lat="50.38174" lon="2.74786">
        <ele>118.6</ele>
        <time>2023-10-28T13:13:01.929Z</time>
      </trkpt>
      <trkpt lat="50.38159" lon="2.74751">
        <ele>119.2</ele>
        <time>2023-10-28T13:13:05.504Z</time>
      </trkpt>
      <trkpt lat="50.38145" lon="2.7472">
        <ele>120</ele>
        <time>2023-10-28T13:13:09.086Z</time>
      </trkpt>
      <trkpt lat="50.38127" lon="2.74675">
        <ele>120.6</ele>
        <time>2023-10-28T13:13:12.677Z</time>
      </trkpt>
      <trkpt lat="50.38127" lon="2.74657">
        <ele>120.6</ele>
        <time>2023-10-28T13:13:16.271Z</time>
      </trkpt>
      <trkpt lat="50.38129" lon="2.74657">
        <ele>120.4</ele>
        <time>2023-10-28T13:13:19.865Z</time>
      </trkpt>
      <trkpt lat="50.3813" lon="2.74657">
        <ele>120.4</ele>
        <time>2023-10-28T13:13:23.460Z</time>
      </trkpt>
      <trkpt lat="50.3813" lon="2.74657">
        <ele>120.4</ele>
        <time>2023-10-28T13:13:27.055Z</time>
      </trkpt>
      <trkpt lat="50.38131" lon="2.74657">
        <ele>120.4</ele>
        <time>2023-10-28T13:13:30.650Z</time>
      </trkpt>
      <trkpt lat="50.38134" lon="2.74657">
        <ele>120.2</ele>
        <time>2023-10-28T13:13:34.246Z</time>
      </trkpt>
      <trkpt lat="50.3816" lon="2.74658">
        <ele>119.6</ele>
        <time>2023-10-28T13:13:37.849Z</time>
      </trkpt>
      <trkpt lat="50.38199" lon="2.74658">
        <ele>118</ele>
        <time>2023-10-28T13:13:41.463Z</time>
      </trkpt>
      <trkpt lat="50.38216" lon="2.74658">
        <ele>118</ele>
        <time>2023-10-28T13:13:45.081Z</time>
      </trkpt>
      <trkpt lat="50.38257" lon="2.74655">
        <ele>116</ele>
        <time>2023-10-28T13:13:48.710Z</time>
      </trkpt>
      <trkpt lat="50.38284" lon="2.74651">
        <ele>113.8</ele>
        <time>2023-10-28T13:13:52.347Z</time>
      </trkpt>
      <trkpt lat="50.38299" lon="2.74646">
        <ele>112.4</ele>
        <time>2023-10-28T13:13:55.988Z</time>
      </trkpt>
      <trkpt lat="50.38315" lon="2.74636">
        <ele>111</ele>
        <time>2023-10-28T13:13:59.634Z</time>
      </trkpt>
      <trkpt lat="50.38375" lon="2.74586">
        <ele>106</ele>
        <time>2023-10-28T13:14:03.299Z</time>
      </trkpt>
      <trkpt lat="50.38398" lon="2.74577">
        <ele>103.6</ele>
        <time>2023-10-28T13:14:06.970Z</time>
      </trkpt>
      <trkpt lat="50.3843" lon="2.74569">
        <ele>102.8</ele>
        <time>2023-10-28T13:14:10.650Z</time>
      </trkpt>
      <trkpt lat="50.38449" lon="2.74581">
        <ele>101.8</ele>
        <time>2023-10-28T13:14:14.335Z</time>
      </trkpt>
      <trkpt lat="50.38467" lon="2.74586">
        <ele>100.2</ele>
        <time>2023-10-28T13:14:18.025Z</time>
      </trkpt>
      <trkpt lat="50.38502" lon="2.74589">
        <ele>98.8</ele>
        <time>2023-10-28T13:14:21.725Z</time>
      </trkpt>
      <trkpt lat="50.38538" lon="2.74573">
        <ele>98.6</ele>
        <time>2023-10-28T13:14:25.435Z</time>
      </trkpt>
      <trkpt lat="50.38569" lon="2.74543">
        <ele>97.8</ele>
        <time>2023-10-28T13:14:29.155Z</time>
      </trkpt>
      <trkpt lat="50.38608" lon="2.74487">
        <ele>95</ele>
        <time>2023-10-28T13:14:32.890Z</time>
      </trkpt>
      <trkpt lat="50.38606" lon="2.74466">
        <ele>95.2</ele>
        <time>2023-10-28T13:14:36.628Z</time>
      </trkpt>
      <trkpt lat="50.38598" lon="2.74442">
        <ele>96.2</ele>
        <time>2023-10-28T13:14:40.371Z</time>
      </trkpt>
      <trkpt lat="50.38591" lon="2.74419">
        <ele>96.6</ele>
        <time>2023-10-28T13:14:44.119Z</time>
      </trkpt>
      <trkpt lat="50.3858" lon="2.74394">
        <ele>97</ele>
        <time>2023-10-28T13:14:47.872Z</time>
      </trkpt>
      <trkpt lat="50.38568" lon="2.74378">
        <ele>97.2</ele>
        <time>2023-10-28T13:14:51.629Z</time>
      </trkpt>
      <trkpt lat="50.38553" lon="2.7436">
        <ele>98</ele>
        <time>2023-10-28T13:14:55.391Z</time>
      </trkpt>
      <trkpt lat="50.38535" lon="2.7434">
        <ele>99.8</ele>
        <time>2023-10-28T13:14:59.159Z</time>
      </trkpt>
      <trkpt lat="50.38517" lon="2.74319">
        <ele>102.4</ele>
        <time>2023-10-28T13:15:02.934Z</time>
      </trkpt>
      <trkpt lat="50.38488" lon="2.74288">
        <ele>105.8</ele>
        <time>2023-10-28T13:15:06.718Z</time>
      </trkpt>
      <trkpt lat="50.38464" lon="2.74254">
        <ele>108.2</ele>
        <time>2023-10-28T13:15:10.511Z</time>
      </trkpt>
      <trkpt lat="50.38443" lon="2.74195">
        <ele>109</ele>
        <time>2023-10-28T13:15:14.316Z</time>
      </trkpt>
      <trkpt lat="50.38419" lon="2.74149">
        <ele>109</ele>
        <time>2023-10-28T13:15:18.131Z</time>
      </trkpt>
      <trkpt lat="50.38384" lon="2.74093">
        <ele>110.4</ele>
        <time>2023-10-28T13:15:21.960Z</time>
      </trkpt>
      <trkpt lat="50.38348" lon="2.74041">
        <ele>112.8</ele>
        <time>2023-10-28T13:15:25.802Z</time>
      </trkpt>
      <trkpt lat="50.3831" lon="2.73981">
        <ele>113.6</ele>
        <time>2023-10-28T13:15:29.659Z</time>
      </trkpt>
      <trkpt lat="50.38276" lon="2.73924">
        <ele>113</ele>
        <time>2023-10-28T13:15:33.530Z</time>
      </trkpt>
      <trkpt lat="50.3825" lon="2.73879">
        <ele>113.8</ele>
        <time>2023-10-28T13:15:37.411Z</time>
      </trkpt>
      <trkpt lat="50.38215" lon="2.73831">
        <ele>115</ele>
        <time>2023-10-28T13:15:41.305Z</time>
      </trkpt>
      <trkpt lat="50.3818" lon="2.73784">
        <ele>115.8</ele>
        <time>2023-10-28T13:15:45.212Z</time>
      </trkpt>
      <trkpt lat="50.38149" lon="2.73726">
        <ele>116</ele>
        <time>2023-10-28T13:15:49.132Z</time>
      </trkpt>
      <trkpt lat="50.3813" lon="2.73682">
        <ele>115.8</ele>
        <time>2023-10-28T13:15:53.061Z</time>
      </trkpt>
      <trkpt lat="50.38102" lon="2.73616">
        <ele>115.6</ele>
        <time>2023-10-28T13:15:57.004Z</time>
      </trkpt>
      <trkpt lat="50.38077" lon="2.73537">
        <ele>117.2</ele>
        <time>2023-10-28T13:16:00.962Z</time>
      </trkpt>
      <trkpt lat="50.38065" lon="2.73493">
        <ele>116.6</ele>
        <time>2023-10-28T13:16:04.929Z</time>
      </trkpt>
      <trkpt lat="50.38058" lon="2.73465">
        <ele>116.2</ele>
        <time>2023-10-28T13:16:08.901Z</time>
      </trkpt>
      <trkpt lat="50.38031" lon="2.73399">
        <ele>117.4</ele>
        <time>2023-10-28T13:16:12.887Z</time>
      </trkpt>
      <trkpt lat="50.38004" lon="2.73333">
        <ele>118.2</ele>
        <time>2023-10-28T13:16:16.886Z</time>
      </trkpt>
      <trkpt lat="50.37968" lon="2.73238">
        <ele>118</ele>
        <time>2023-10-28T13:16:20.905Z</time>
      </trkpt>
      <trkpt lat="50.37943" lon="2.73166">
        <ele>121.8</ele>
        <time>2023-10-28T13:16:24.938Z</time>
      </trkpt>
      <trkpt lat="50.37926" lon="2.73087">
        <ele>120.6</ele>
        <time>2023-10-28T13:16:28.986Z</time>
      </trkpt>
      <trkpt lat="50.37914" lon="2.73011">
        <ele>123.6</ele>
        <time>2023-10-28T13:16:33.047Z</time>
      </trkpt>
      <trkpt lat="50.37894" lon="2.72943">
        <ele>127</ele>
        <time>2023-10-28T13:16:37.121Z</time>
      </trkpt>
      <trkpt lat="50.37884" lon="2.72894">
        <ele>128</ele>
        <time>2023-10-28T13:16:41.204Z</time>
      </trkpt>
      <trkpt lat="50.37873" lon="2.72858">
        <ele>128.4</ele>
        <time>2023-10-28T13:16:45.294Z</time>
      </trkpt>
      <trkpt lat="50.37863" lon="2.7284">
        <ele>129</ele>
        <time>2023-10-28T13:16:49.388Z</time>
      </trkpt>
      <trkpt lat="50.37853" lon="2.7282">
        <ele>129.8</ele>
        <time>2023-10-28T13:16:53.487Z</time>
      </trkpt>
      <trkpt lat="50.37847" lon="2.7281">
        <ele>130.4</ele>
        <time>2023-10-28T13:16:57.588Z</time>
      </trkpt>
      <trkpt lat="50.37838" lon="2.72792">
        <ele>130.8</ele>
        <time>2023-10-28T13:17:01.693Z</time>
      </trkpt>
      <trkpt lat="50.37814" lon="2.72746">
        <ele>131.6</ele>
        <time>2023-10-28T13:17:05.809Z</time>
      </trkpt>
      <trkpt lat="50.37786" lon="2.72676">
        <ele>131.6</ele>
        <time>2023-10-28T13:17:09.939Z</time>
      </trkpt>
      <trkpt lat="50.37769" lon="2.72625">
        <ele>133.2</ele>
        <time>2023-10-28T13:17:14.079Z</time>
      </trkpt>
      <trkpt lat="50.37751" lon="2.72567">
        <ele>133</ele>
        <time>2023-10-28T13:17:18.230Z</time>
      </trkpt>
      <trkpt lat="50.3773" lon="2.72499">
        <ele>134.8</ele>
        <time>2023-10-28T13:17:22.395Z</time>
      </trkpt>
      <trkpt lat="50.3771" lon="2.7245">
        <ele>136.4</ele>
        <time>2023-10-28T13:17:26.570Z</time>
      </trkpt>
      <trkpt lat="50.37687" lon="2.72407">
        <ele>137</ele>
        <time>2023-10-28T13:17:30.755Z</time>
      </trkpt>
      <trkpt lat="50.37669" lon="2.72384">
        <ele>137</ele>
        <time>2023-10-28T13:17:34.946Z</time>
      </trkpt>
      <trkpt lat="50.37652" lon="2.72364">
        <ele>137</ele>
        <time>2023-10-28T13:17:39.143Z</time>
      </trkpt>
      <trkpt lat="50.37632" lon="2.72344">
        <ele>137</ele>
        <time>2023-10-28T13:17:43.346Z</time>
      </trkpt>
      <trkpt lat="50.3759" lon="2.72305">
        <ele>136.4</ele>
        <time>2023-10-28T13:17:47.563Z</time>
      </trkpt>
      <trkpt lat="50.37551" lon="2.7227">
        <ele>136</ele>
        <time>2023-10-28T13:17:51.792Z</time>
      </trkpt>
      <trkpt lat="50.37521" lon="2.72245">
        <ele>136</ele>
        <time>2023-10-28T13:17:56.030Z</time>
      </trkpt>
      <trkpt lat="50.37505" lon="2.7223">
        <ele>136</ele>
        <time>2023-10-28T13:18:00.273Z</time>
      </trkpt>
      <trkpt lat="50.37515" lon="2.72208">
        <ele>135.6</ele>
        <time>2023-10-28T13:18:04.521Z</time>
      </trkpt>
      <trkpt lat="50.37545" lon="2.72182">
        <ele>135.4</ele>
        <time>2023-10-28T13:18:08.779Z</time>
      </trkpt>
      <trkpt lat="50.3756" lon="2.72169">
        <ele>135.2</ele>
        <time>2023-10-28T13:18:13.041Z</time>
      </trkpt>
      <trkpt lat="50.37586" lon="2.72147">
        <ele>135</ele>
        <time>2023-10-28T13:18:17.311Z</time>
      </trkpt>
      <trkpt lat="50.37595" lon="2.7214">
        <ele>135</ele>
        <time>2023-10-28T13:18:21.584Z</time>
      </trkpt>
      <trkpt lat="50.37615" lon="2.72127">
        <ele>134.8</ele>
        <time>2023-10-28T13:18:25.863Z</time>
      </trkpt>
      <trkpt lat="50.37643" lon="2.72109">
        <ele>133.8</ele>
        <time>2023-10-28T13:18:30.150Z</time>
      </trkpt>
      <trkpt lat="50.37714" lon="2.72063">
        <ele>129.2</ele>
        <time>2023-10-28T13:18:34.458Z</time>
      </trkpt>
      <trkpt lat="50.37809" lon="2.71986">
        <ele>121.6</ele>
        <time>2023-10-28T13:18:38.796Z</time>
      </trkpt>
      <trkpt lat="50.37891" lon="2.71905">
        <ele>115.6</ele>
        <time>2023-10-28T13:18:43.160Z</time>
      </trkpt>
      <trkpt lat="50.37923" lon="2.71877">
        <ele>111</ele>
        <time>2023-10-28T13:18:47.534Z</time>
      </trkpt>
      <trkpt lat="50.37947" lon="2.71864">
        <ele>108.4</ele>
        <time>2023-10-28T13:18:51.915Z</time>
      </trkpt>
      <trkpt lat="50.37972" lon="2.71853">
        <ele>105.2</ele>
        <time>2023-10-28T13:18:56.303Z</time>
      </trkpt>
      <trkpt lat="50.38046" lon="2.71815">
        <ele>96.6</ele>
        <time>2023-10-28T13:19:00.712Z</time>
      </trkpt>
      <trkpt lat="50.38052" lon="2.71811">
        <ele>96</ele>
        <time>2023-10-28T13:19:05.123Z</time>
      </trkpt>
      <trkpt lat="50.38065" lon="2.71813">
        <ele>94.6</ele>
        <time>2023-10-28T13:19:09.538Z</time>
      </trkpt>
      <trkpt lat="50.38081" lon="2.71852">
        <ele>95.4</ele>
        <time>2023-10-28T13:19:13.961Z</time>
      </trkpt>
      <trkpt lat="50.38084" lon="2.71862">
        <ele>95.6</ele>
        <time>2023-10-28T13:19:18.386Z</time>
      </trkpt>
      <trkpt lat="50.38099" lon="2.7189">
        <ele>95.6</ele>
        <time>2023-10-28T13:19:22.817Z</time>
      </trkpt>
      <trkpt lat="50.38111" lon="2.71897">
        <ele>94.8</ele>
        <time>2023-10-28T13:19:27.252Z</time>
      </trkpt>
      <trkpt lat="50.38159" lon="2.71886">
        <ele>91.2</ele>
        <time>2023-10-28T13:19:31.700Z</time>
      </trkpt>
      <trkpt lat="50.38187" lon="2.71896">
        <ele>89.4</ele>
        <time>2023-10-28T13:19:36.156Z</time>
      </trkpt>
      <trkpt lat="50.38229" lon="2.7189">
        <ele>87.4</ele>
        <time>2023-10-28T13:19:40.623Z</time>
      </trkpt>
      <trkpt lat="50.38248" lon="2.71882">
        <ele>86.4</ele>
        <time>2023-10-28T13:19:45.096Z</time>
      </trkpt>
      <trkpt lat="50.38267" lon="2.71874">
        <ele>86</ele>
        <time>2023-10-28T13:19:49.574Z</time>
      </trkpt>
      <trkpt lat="50.38282" lon="2.71866">
        <ele>85.6</ele>
        <time>2023-10-28T13:19:54.056Z</time>
      </trkpt>
      <trkpt lat="50.38298" lon="2.71855">
        <ele>85</ele>
        <time>2023-10-28T13:19:58.543Z</time>
      </trkpt>
      <trkpt lat="50.38334" lon="2.71832">
        <ele>85.8</ele>
        <time>2023-10-28T13:20:03.041Z</time>
      </trkpt>
      <trkpt lat="50.38348" lon="2.71823">
        <ele>86.2</ele>
        <time>2023-10-28T13:20:07.543Z</time>
      </trkpt>
      <trkpt lat="50.38358" lon="2.71819">
        <ele>87</ele>
        <time>2023-10-28T13:20:12.048Z</time>
      </trkpt>
      <trkpt lat="50.38376" lon="2.71808">
        <ele>87.6</ele>
        <time>2023-10-28T13:20:16.558Z</time>
      </trkpt>
      <trkpt lat="50.38398" lon="2.71793">
        <ele>89.2</ele>
        <time>2023-10-28T13:20:21.075Z</time>
      </trkpt>
      <trkpt lat="50.38409" lon="2.71786">
        <ele>90.6</ele>
        <time>2023-10-28T13:20:25.595Z</time>
      </trkpt>
      <trkpt lat="50.38417" lon="2.7178">
        <ele>91.2</ele>
        <time>2023-10-28T13:20:30.117Z</time>
      </trkpt>
      <trkpt lat="50.38422" lon="2.71753">
        <ele>92.2</ele>
        <time>2023-10-28T13:20:34.644Z</time>
      </trkpt>
      <trkpt lat="50.38422" lon="2.71722">
        <ele>93</ele>
        <time>2023-10-28T13:20:39.177Z</time>
      </trkpt>
      <trkpt lat="50.38423" lon="2.71694">
        <ele>92.8</ele>
        <time>2023-10-28T13:20:43.715Z</time>
      </trkpt>
      <trkpt lat="50.38422" lon="2.71692">
        <ele>92.6</ele>
        <time>2023-10-28T13:20:48.253Z</time>
      </trkpt>
      <trkpt lat="50.38418" lon="2.71687">
        <ele>92.6</ele>
        <time>2023-10-28T13:20:52.792Z</time>
      </trkpt>
      <trkpt lat="50.3841" lon="2.71671">
        <ele>91.8</ele>
        <time>2023-10-28T13:20:57.335Z</time>
      </trkpt>
      <trkpt lat="50.38407" lon="2.71639">
        <ele>91.6</ele>
        <time>2023-10-28T13:21:01.884Z</time>
      </trkpt>
      <trkpt lat="50.38402" lon="2.71591">
        <ele>91.2</ele>
        <time>2023-10-28T13:21:06.441Z</time>
      </trkpt>
      <trkpt lat="50.38397" lon="2.71554">
        <ele>91.8</ele>
        <time>2023-10-28T13:21:11.005Z</time>
      </trkpt>
      <trkpt lat="50.38389" lon="2.7151">
        <ele>92.2</ele>
        <time>2023-10-28T13:21:15.577Z</time>
      </trkpt>
      <trkpt lat="50.38382" lon="2.7148">
        <ele>92.6</ele>
        <time>2023-10-28T13:21:20.154Z</time>
      </trkpt>
      <trkpt lat="50.38362" lon="2.71427">
        <ele>93.2</ele>
        <time>2023-10-28T13:21:24.742Z</time>
      </trkpt>
      <trkpt lat="50.38356" lon="2.71415">
        <ele>93.4</ele>
        <time>2023-10-28T13:21:29.333Z</time>
      </trkpt>
      <trkpt lat="50.38344" lon="2.71393">
        <ele>93.6</ele>
        <time>2023-10-28T13:21:33.929Z</time>
      </trkpt>
      <trkpt lat="50.38321" lon="2.7136">
        <ele>93.8</ele>
        <time>2023-10-28T13:21:38.533Z</time>
      </trkpt>
      <trkpt lat="50.38283" lon="2.71304">
        <ele>95.2</ele>
        <time>2023-10-28T13:21:43.152Z</time>
      </trkpt>
      <trkpt lat="50.38253" lon="2.71254">
        <ele>94</ele>
        <time>2023-10-28T13:21:47.783Z</time>
      </trkpt>
      <trkpt lat="50.38241" lon="2.71232">
        <ele>92.8</ele>
        <time>2023-10-28T13:21:52.419Z</time>
      </trkpt>
      <trkpt lat="50.38213" lon="2.71186">
        <ele>90</ele>
        <time>2023-10-28T13:21:57.066Z</time>
      </trkpt>
      <trkpt lat="50.382" lon="2.71165">
        <ele>89.2</ele>
        <time>2023-10-28T13:22:01.718Z</time>
      </trkpt>
      <trkpt lat="50.38165" lon="2.71119">
        <ele>88</ele>
        <time>2023-10-28T13:22:06.382Z</time>
      </trkpt>
      <trkpt lat="50.38113" lon="2.71057">
        <ele>89</ele>
        <time>2023-10-28T13:22:11.064Z</time>
      </trkpt>
      <trkpt lat="50.3806" lon="2.70981">
        <ele>93.6</ele>
        <time>2023-10-28T13:22:15.766Z</time>
      </trkpt>
      <trkpt lat="50.38028" lon="2.7094">
        <ele>95.8</ele>
        <time>2023-10-28T13:22:20.479Z</time>
      </trkpt>
      <trkpt lat="50.38001" lon="2.70889">
        <ele>96.8</ele>
        <time>2023-10-28T13:22:25.204Z</time>
      </trkpt>
      <trkpt lat="50.3799" lon="2.70803">
        <ele>97.8</ele>
        <time>2023-10-28T13:22:29.944Z</time>
      </trkpt>
      <trkpt lat="50.37985" lon="2.70727">
        <ele>98.8</ele>
        <time>2023-10-28T13:22:34.698Z</time>
      </trkpt>
      <trkpt lat="50.37978" lon="2.70656">
        <ele>99.4</ele>
        <time>2023-10-28T13:22:39.464Z</time>
      </trkpt>
      <trkpt lat="50.37973" lon="2.70593">
        <ele>100.8</ele>
        <time>2023-10-28T13:22:44.241Z</time>
      </trkpt>
      <trkpt lat="50.3797" lon="2.70562">
        <ele>101</ele>
        <time>2023-10-28T13:22:49.024Z</time>
      </trkpt>
      <trkpt lat="50.37982" lon="2.70525">
        <ele>100.8</ele>
        <time>2023-10-28T13:22:53.814Z</time>
      </trkpt>
      <trkpt lat="50.38001" lon="2.70507">
        <ele>99.6</ele>
        <time>2023-10-28T13:22:58.610Z</time>
      </trkpt>
      <trkpt lat="50.38039" lon="2.70473">
        <ele>94.6</ele>
        <time>2023-10-28T13:23:03.418Z</time>
      </trkpt>
      <trkpt lat="50.38076" lon="2.7044">
        <ele>92.2</ele>
        <time>2023-10-28T13:23:08.238Z</time>
      </trkpt>
      <trkpt lat="50.3807" lon="2.7042">
        <ele>92.2</ele>
        <time>2023-10-28T13:23:13.061Z</time>
      </trkpt>
      <trkpt lat="50.38064" lon="2.70405">
        <ele>92</ele>
        <time>2023-10-28T13:23:17.888Z</time>
      </trkpt>
      <trkpt lat="50.38051" lon="2.70375">
        <ele>92</ele>
        <time>2023-10-28T13:23:22.721Z</time>
      </trkpt>
      <trkpt lat="50.38042" lon="2.70349">
        <ele>92.4</ele>
        <time>2023-10-28T13:23:27.559Z</time>
      </trkpt>
      <trkpt lat="50.38045" lon="2.70331">
        <ele>92</ele>
        <time>2023-10-28T13:23:32.400Z</time>
      </trkpt>
      <trkpt lat="50.38059" lon="2.70319">
        <ele>92</ele>
        <time>2023-10-28T13:23:37.246Z</time>
      </trkpt>
      <trkpt lat="50.38089" lon="2.70303">
        <ele>94.6</ele>
        <time>2023-10-28T13:23:42.100Z</time>
      </trkpt>
      <trkpt lat="50.38093" lon="2.70305">
        <ele>95.2</ele>
        <time>2023-10-28T13:23:46.956Z</time>
      </trkpt>
      <trkpt lat="50.38114" lon="2.70318">
        <ele>97.4</ele>
        <time>2023-10-28T13:23:51.818Z</time>
      </trkpt>
      <trkpt lat="50.38125" lon="2.70326">
        <ele>98.4</ele>
        <time>2023-10-28T13:23:56.683Z</time>
      </trkpt>
      <trkpt lat="50.38132" lon="2.7033">
        <ele>99</ele>
        <time>2023-10-28T13:24:01.550Z</time>
      </trkpt>
      <trkpt lat="50.38137" lon="2.70318">
        <ele>100.8</ele>
        <time>2023-10-28T13:24:06.420Z</time>
      </trkpt>
      <trkpt lat="50.38145" lon="2.70296">
        <ele>103.8</ele>
        <time>2023-10-28T13:24:11.294Z</time>
      </trkpt>
      <trkpt lat="50.38151" lon="2.70275">
        <ele>106.2</ele>
        <time>2023-10-28T13:24:16.172Z</time>
      </trkpt>
      <trkpt lat="50.38156" lon="2.70256">
        <ele>108.4</ele>
        <time>2023-10-28T13:24:21.054Z</time>
      </trkpt>
      <trkpt lat="50.3816" lon="2.70235">
        <ele>110.2</ele>
        <time>2023-10-28T13:24:25.940Z</time>
      </trkpt>
      <trkpt lat="50.38162" lon="2.70223">
        <ele>110.8</ele>
        <time>2023-10-28T13:24:30.828Z</time>
      </trkpt>
      <trkpt lat="50.38162" lon="2.70209">
        <ele>111.4</ele>
        <time>2023-10-28T13:24:35.718Z</time>
      </trkpt>
      <trkpt lat="50.38163" lon="2.70191">
        <ele>112.2</ele>
        <time>2023-10-28T13:24:40.611Z</time>
      </trkpt>
      <trkpt lat="50.3816" lon="2.70154">
        <ele>113.8</ele>
        <time>2023-10-28T13:24:45.511Z</time>
      </trkpt>
      <trkpt lat="50.38155" lon="2.70112">
        <ele>116.8</ele>
        <time>2023-10-28T13:24:50.418Z</time>
      </trkpt>
      <trkpt lat="50.38155" lon="2.70079">
        <ele>118.4</ele>
        <time>2023-10-28T13:24:55.331Z</time>
      </trkpt>
      <trkpt lat="50.38155" lon="2.70067">
        <ele>118.8</ele>
        <time>2023-10-28T13:25:00.246Z</time>
      </trkpt>
      <trkpt lat="50.38156" lon="2.70052">
        <ele>119.4</ele>
        <time>2023-10-28T13:25:05.164Z</time>
      </trkpt>
      <trkpt lat="50.38166" lon="2.70043">
        <ele>119.8</ele>
        <time>2023-10-28T13:25:10.085Z</time>
      </trkpt>
      <trkpt lat="50.38193" lon="2.70018">
        <ele>121.8</ele>
        <time>2023-10-28T13:25:15.015Z</time>
      </trkpt>
      <trkpt lat="50.38199" lon="2.70012">
        <ele>122.6</ele>
        <time>2023-10-28T13:25:19.946Z</time>
      </trkpt>
      <trkpt lat="50.38214" lon="2.69998">
        <ele>124</ele>
        <time>2023-10-28T13:25:24.882Z</time>
      </trkpt>
      <trkpt lat="50.38239" lon="2.69977">
        <ele>126.4</ele>
        <time>2023-10-28T13:25:29.826Z</time>
      </trkpt>
      <trkpt lat="50.38254" lon="2.69964">
        <ele>127.6</ele>
        <time>2023-10-28T13:25:34.775Z</time>
      </trkpt>
      <trkpt lat="50.38272" lon="2.69956">
        <ele>128.8</ele>
        <time>2023-10-28T13:25:39.729Z</time>
      </trkpt>
      <trkpt lat="50.38299" lon="2.69946">
        <ele>130</ele>
        <time>2023-10-28T13:25:44.690Z</time>
      </trkpt>
      <trkpt lat="50.38319" lon="2.69938">
        <ele>131.6</ele>
        <time>2023-10-28T13:25:49.657Z</time>
      </trkpt>
      <trkpt lat="50.38339" lon="2.69931">
        <ele>132.4</ele>
        <time>2023-10-28T13:25:54.630Z</time>
      </trkpt>
      <trkpt lat="50.38375" lon="2.69918">
        <ele>133</ele>
        <time>2023-10-28T13:25:59.613Z</time>
      </trkpt>
      <trkpt lat="50.38406" lon="2.69909">
        <ele>133.2</ele>
        <time>2023-10-28T13:26:04.604Z</time>
      </trkpt>
      <trkpt lat="50.38441" lon="2.69898">
        <ele>134</ele>
        <time>2023-10-28T13:26:09.605Z</time>
      </trkpt>
      <trkpt lat="50.38453" lon="2.69894">
        <ele>134.4</ele>
        <time>2023-10-28T13:26:14.610Z</time>
      </trkpt>
      <trkpt lat="50.38461" lon="2.69892">
        <ele>134.8</ele>
        <time>2023-10-28T13:26:19.617Z</time>
      </trkpt>
      <trkpt lat="50.38477" lon="2.69887">
        <ele>135.6</ele>
        <time>2023-10-28T13:26:24.628Z</time>
      </trkpt>
      <trkpt lat="50.3849" lon="2.69883">
        <ele>136.2</ele>
        <time>2023-10-28T13:26:29.643Z</time>
      </trkpt>
      <trkpt lat="50.38509" lon="2.69876">
        <ele>137</ele>
        <time>2023-10-28T13:26:34.663Z</time>
      </trkpt>
      <trkpt lat="50.38541" lon="2.69867">
        <ele>137</ele>
        <time>2023-10-28T13:26:39.692Z</time>
      </trkpt>
      <trkpt lat="50.38581" lon="2.69859">
        <ele>137</ele>
        <time>2023-10-28T13:26:44.732Z</time>
      </trkpt>
      <trkpt lat="50.38601" lon="2.69857">
        <ele>136.4</ele>
        <time>2023-10-28T13:26:49.778Z</time>
      </trkpt>
      <trkpt lat="50.38628" lon="2.6986">
        <ele>135.6</ele>
        <time>2023-10-28T13:26:54.831Z</time>
      </trkpt>
      <trkpt lat="50.38655" lon="2.69865">
        <ele>134.4</ele>
        <time>2023-10-28T13:26:59.891Z</time>
      </trkpt>
      <trkpt lat="50.38683" lon="2.69864">
        <ele>134</ele>
        <time>2023-10-28T13:27:04.959Z</time>
      </trkpt>
      <trkpt lat="50.38725" lon="2.69855">
        <ele>132.8</ele>
        <time>2023-10-28T13:27:10.039Z</time>
      </trkpt>
      <trkpt lat="50.38745" lon="2.69868">
        <ele>132</ele>
        <time>2023-10-28T13:27:15.125Z</time>
      </trkpt>
      <trkpt lat="50.38843" lon="2.6994">
        <ele>130</ele>
        <time>2023-10-28T13:27:20.240Z</time>
      </trkpt>
      <trkpt lat="50.3889" lon="2.69987">
        <ele>128</ele>
        <time>2023-10-28T13:27:25.371Z</time>
      </trkpt>
      <trkpt lat="50.38947" lon="2.70049">
        <ele>125.2</ele>
        <time>2023-10-28T13:27:30.520Z</time>
      </trkpt>
      <trkpt lat="50.38989" lon="2.70094">
        <ele>123.2</ele>
        <time>2023-10-28T13:27:35.683Z</time>
      </trkpt>
      <trkpt lat="50.39014" lon="2.70111">
        <ele>122.4</ele>
        <time>2023-10-28T13:27:40.854Z</time>
      </trkpt>
      <trkpt lat="50.39021" lon="2.7011">
        <ele>122.2</ele>
        <time>2023-10-28T13:27:46.027Z</time>
      </trkpt>
      <trkpt lat="50.39021" lon="2.70083">
        <ele>123.2</ele>
        <time>2023-10-28T13:27:51.204Z</time>
      </trkpt>
      <trkpt lat="50.39017" lon="2.70039">
        <ele>124.6</ele>
        <time>2023-10-28T13:27:56.389Z</time>
      </trkpt>
      <trkpt lat="50.39014" lon="2.70009">
        <ele>125.6</ele>
        <time>2023-10-28T13:28:01.580Z</time>
      </trkpt>
      <trkpt lat="50.39012" lon="2.69995">
        <ele>126</ele>
        <time>2023-10-28T13:28:06.773Z</time>
      </trkpt>
      <trkpt lat="50.39004" lon="2.69963">
        <ele>126</ele>
        <time>2023-10-28T13:28:11.972Z</time>
      </trkpt>
      <trkpt lat="50.38996" lon="2.6994">
        <ele>126</ele>
        <time>2023-10-28T13:28:17.176Z</time>
      </trkpt>
      <trkpt lat="50.38982" lon="2.69897">
        <ele>126.6</ele>
        <time>2023-10-28T13:28:22.388Z</time>
      </trkpt>
      <trkpt lat="50.38967" lon="2.69853">
        <ele>128.2</ele>
        <time>2023-10-28T13:28:27.609Z</time>
      </trkpt>
      <trkpt lat="50.38947" lon="2.69792">
        <ele>130.4</ele>
        <time>2023-10-28T13:28:32.842Z</time>
      </trkpt>
      <trkpt lat="50.38922" lon="2.69717">
        <ele>132.2</ele>
        <time>2023-10-28T13:28:38.090Z</time>
      </trkpt>
      <trkpt lat="50.38904" lon="2.69647">
        <ele>133.6</ele>
        <time>2023-10-28T13:28:43.351Z</time>
      </trkpt>
      <trkpt lat="50.38895" lon="2.69603">
        <ele>134.4</ele>
        <time>2023-10-28T13:28:48.620Z</time>
      </trkpt>
      <trkpt lat="50.38902" lon="2.69595">
        <ele>133.8</ele>
        <time>2023-10-28T13:28:53.891Z</time>
      </trkpt>
      <trkpt lat="50.3892" lon="2.69604">
        <ele>132.6</ele>
        <time>2023-10-28T13:28:59.167Z</time>
      </trkpt>
      <trkpt lat="50.38954" lon="2.69624">
        <ele>130.6</ele>
        <time>2023-10-28T13:29:04.453Z</time>
      </trkpt>
      <trkpt lat="50.38968" lon="2.69633">
        <ele>130</ele>
        <time>2023-10-28T13:29:09.743Z</time>
      </trkpt>
      <trkpt lat="50.38991" lon="2.69647">
        <ele>129.2</ele>
        <time>2023-10-28T13:29:15.040Z</time>
      </trkpt>
      <trkpt lat="50.39026" lon="2.69668">
        <ele>128.2</ele>
        <time>2023-10-28T13:29:20.347Z</time>
      </trkpt>
      <trkpt lat="50.39061" lon="2.6969">
        <ele>127</ele>
        <time>2023-10-28T13:29:25.665Z</time>
      </trkpt>
      <trkpt lat="50.39078" lon="2.697">
        <ele>126</ele>
        <time>2023-10-28T13:29:30.988Z</time>
      </trkpt>
      <trkpt lat="50.39114" lon="2.69722">
        <ele>122</ele>
        <time>2023-10-28T13:29:36.321Z</time>
      </trkpt>
      <trkpt lat="50.39133" lon="2.69734">
        <ele>120.8</ele>
        <time>2023-10-28T13:29:41.660Z</time>
      </trkpt>
      <trkpt lat="50.39166" lon="2.69751">
        <ele>120</ele>
        <time>2023-10-28T13:29:47.008Z</time>
      </trkpt>
      <trkpt lat="50.39198" lon="2.69765">
        <ele>118.4</ele>
        <time>2023-10-28T13:29:52.365Z</time>
      </trkpt>
      <trkpt lat="50.39243" lon="2.69786">
        <ele>116</ele>
        <time>2023-10-28T13:29:57.735Z</time>
      </trkpt>
      <trkpt lat="50.39271" lon="2.69802">
        <ele>114.6</ele>
        <time>2023-10-28T13:30:03.113Z</time>
      </trkpt>
      <trkpt lat="50.39323" lon="2.69857">
        <ele>109.6</ele>
        <time>2023-10-28T13:30:08.509Z</time>
      </trkpt>
      <trkpt lat="50.39352" lon="2.69888">
        <ele>108.2</ele>
        <time>2023-10-28T13:30:13.914Z</time>
      </trkpt>
      <trkpt lat="50.394" lon="2.69938">
        <ele>105.4</ele>
        <time>2023-10-28T13:30:19.335Z</time>
      </trkpt>
      <trkpt lat="50.39453" lon="2.69993">
        <ele>102.6</ele>
        <time>2023-10-28T13:30:24.773Z</time>
      </trkpt>
      <trkpt lat="50.39478" lon="2.70019">
        <ele>101.2</ele>
        <time>2023-10-28T13:30:30.220Z</time>
      </trkpt>
      <trkpt lat="50.39536" lon="2.70076">
        <ele>99.6</ele>
        <time>2023-10-28T13:30:35.685Z</time>
      </trkpt>
      <trkpt lat="50.39554" lon="2.70094">
        <ele>99</ele>
        <time>2023-10-28T13:30:41.156Z</time>
      </trkpt>
      <trkpt lat="50.39552" lon="2.70111">
        <ele>99</ele>
        <time>2023-10-28T13:30:46.630Z</time>
      </trkpt>
      <trkpt lat="50.39531" lon="2.7017">
        <ele>98</ele>
        <time>2023-10-28T13:30:52.116Z</time>
      </trkpt>
      <trkpt lat="50.39514" lon="2.70209">
        <ele>98.4</ele>
        <time>2023-10-28T13:30:57.610Z</time>
      </trkpt>
      <trkpt lat="50.39481" lon="2.70274">
        <ele>99</ele>
        <time>2023-10-28T13:31:03.119Z</time>
      </trkpt>
      <trkpt lat="50.39446" lon="2.70348">
        <ele>99.8</ele>
        <time>2023-10-28T13:31:08.644Z</time>
      </trkpt>
      <trkpt lat="50.3942" lon="2.70418">
        <ele>101.6</ele>
        <time>2023-10-28T13:31:14.183Z</time>
      </trkpt>
      <trkpt lat="50.39398" lon="2.70485">
        <ele>102.6</ele>
        <time>2023-10-28T13:31:19.735Z</time>
      </trkpt>
      <trkpt lat="50.3939" lon="2.70555">
        <ele>100.4</ele>
        <time>2023-10-28T13:31:25.300Z</time>
      </trkpt>
      <trkpt lat="50.39387" lon="2.70611">
        <ele>98.2</ele>
        <time>2023-10-28T13:31:30.875Z</time>
      </trkpt>
      <trkpt lat="50.39382" lon="2.70636">
        <ele>98.2</ele>
        <time>2023-10-28T13:31:36.454Z</time>
      </trkpt>
      <trkpt lat="50.39356" lon="2.707">
        <ele>98.2</ele>
        <time>2023-10-28T13:31:42.046Z</time>
      </trkpt>
      <trkpt lat="50.39335" lon="2.70745">
        <ele>98.2</ele>
        <time>2023-10-28T13:31:47.648Z</time>
      </trkpt>
      <trkpt lat="50.39327" lon="2.70759">
        <ele>98</ele>
        <time>2023-10-28T13:31:53.253Z</time>
      </trkpt>
      <trkpt lat="50.39304" lon="2.70801">
        <ele>97.4</ele>
        <time>2023-10-28T13:31:58.868Z</time>
      </trkpt>
      <trkpt lat="50.3926" lon="2.70903">
        <ele>95.6</ele>
        <time>2023-10-28T13:32:04.505Z</time>
      </trkpt>
      <trkpt lat="50.39236" lon="2.71023">
        <ele>96.4</ele>
        <time>2023-10-28T13:32:10.164Z</time>
      </trkpt>
      <trkpt lat="50.39219" lon="2.71122">
        <ele>98</ele>
        <time>2023-10-28T13:32:15.841Z</time>
      </trkpt>
      <trkpt lat="50.39203" lon="2.71183">
        <ele>98.6</ele>
        <time>2023-10-28T13:32:21.529Z</time>
      </trkpt>
      <trkpt lat="50.39179" lon="2.71253">
        <ele>96.2</ele>
        <time>2023-10-28T13:32:27.231Z</time>
      </trkpt>
      <trkpt lat="50.39162" lon="2.71341">
        <ele>94.2</ele>
        <time>2023-10-28T13:32:32.949Z</time>
      </trkpt>
      <trkpt lat="50.39169" lon="2.71349">
        <ele>94.2</ele>
        <time>2023-10-28T13:32:38.669Z</time>
      </trkpt>
      <trkpt lat="50.39195" lon="2.7136">
        <ele>93.8</ele>
        <time>2023-10-28T13:32:44.397Z</time>
      </trkpt>
      <trkpt lat="50.39231" lon="2.71376">
        <ele>92.6</ele>
        <time>2023-10-28T13:32:50.135Z</time>
      </trkpt>
      <trkpt lat="50.39274" lon="2.71398">
        <ele>90</ele>
        <time>2023-10-28T13:32:55.885Z</time>
      </trkpt>
      <trkpt lat="50.39336" lon="2.71424">
        <ele>89.2</ele>
        <time>2023-10-28T13:33:01.653Z</time>
      </trkpt>
      <trkpt lat="50.39345" lon="2.71431">
        <ele>89.6</ele>
        <time>2023-10-28T13:33:07.424Z</time>
      </trkpt>
      <trkpt lat="50.39344" lon="2.71443">
        <ele>89.4</ele>
        <time>2023-10-28T13:33:13.197Z</time>
      </trkpt>
      <trkpt lat="50.39345" lon="2.71486">
        <ele>90</ele>
        <time>2023-10-28T13:33:18.977Z</time>
      </trkpt>
      <trkpt lat="50.39346" lon="2.7152">
        <ele>90.6</ele>
        <time>2023-10-28T13:33:24.763Z</time>
      </trkpt>
      <trkpt lat="50.39347" lon="2.71546">
        <ele>89.8</ele>
        <time>2023-10-28T13:33:30.554Z</time>
      </trkpt>
      <trkpt lat="50.39342" lon="2.71568">
        <ele>88.6</ele>
        <time>2023-10-28T13:33:36.349Z</time>
      </trkpt>
      <trkpt lat="50.39327" lon="2.71599">
        <ele>86</ele>
        <time>2023-10-28T13:33:42.151Z</time>
      </trkpt>
      <trkpt lat="50.39311" lon="2.71635">
        <ele>85.2</ele>
        <time>2023-10-28T13:33:47.960Z</time>
      </trkpt>
      <trkpt lat="50.39294" lon="2.71669">
        <ele>85.2</ele>
        <time>2023-10-28T13:33:53.777Z</time>
      </trkpt>
      <trkpt lat="50.3929" lon="2.71663">
        <ele>85.4</ele>
        <time>2023-10-28T13:33:59.595Z</time>
      </trkpt>
      <trkpt lat="50.39286" lon="2.71656">
        <ele>85.6</ele>
        <time>2023-10-28T13:34:05.415Z</time>
      </trkpt>
      <trkpt lat="50.39261" lon="2.71689">
        <ele>85.4</ele>
        <time>2023-10-28T13:34:11.244Z</time>
      </trkpt>
      <trkpt lat="50.39247" lon="2.71715">
        <ele>85</ele>
        <time>2023-10-28T13:34:17.079Z</time>
      </trkpt>
      <trkpt lat="50.39233" lon="2.71762">
        <ele>86</ele>
        <time>2023-10-28T13:34:22.923Z</time>
      </trkpt>
      <trkpt lat="50.39226" lon="2.71788">
        <ele>86.6</ele>
        <time>2023-10-28T13:34:28.772Z</time>
      </trkpt>
      <trkpt lat="50.39221" lon="2.71812">
        <ele>86.8</ele>
        <time>2023-10-28T13:34:34.625Z</time>
      </trkpt>
      <trkpt lat="50.39206" lon="2.71851">
        <ele>85.6</ele>
        <time>2023-10-28T13:34:40.486Z</time>
      </trkpt>
      <trkpt lat="50.39201" lon="2.71874">
        <ele>84.8</ele>
        <time>2023-10-28T13:34:46.352Z</time>
      </trkpt>
      <trkpt lat="50.392" lon="2.71891">
        <ele>84.2</ele>
        <time>2023-10-28T13:34:52.220Z</time>
      </trkpt>
      <trkpt lat="50.39201" lon="2.71905">
        <ele>84</ele>
        <time>2023-10-28T13:34:58.091Z</time>
      </trkpt>
      <trkpt lat="50.39212" lon="2.71958">
        <ele>84</ele>
        <time>2023-10-28T13:35:03.972Z</time>
      </trkpt>
      <trkpt lat="50.39243" lon="2.71994">
        <ele>84.15</ele>
        <time>2023-10-28T13:35:09.863Z</time>
      </trkpt>
      <trkpt lat="50.39252" lon="2.72004">
        <ele>84.2</ele>
        <time>2023-10-28T13:35:15.757Z</time>
      </trkpt>
      <trkpt lat="50.39266" lon="2.72042">
        <ele>85.6</ele>
        <time>2023-10-28T13:35:21.659Z</time>
      </trkpt>
      <trkpt lat="50.39265" lon="2.72082">
        <ele>85.8</ele>
        <time>2023-10-28T13:35:27.568Z</time>
      </trkpt>
      <trkpt lat="50.39275" lon="2.72098">
        <ele>86</ele>
        <time>2023-10-28T13:35:33.481Z</time>
      </trkpt>
      <trkpt lat="50.39294" lon="2.72108">
        <ele>86.8</ele>
        <time>2023-10-28T13:35:39.399Z</time>
      </trkpt>
      <trkpt lat="50.39326" lon="2.72126">
        <ele>88.4</ele>
        <time>2023-10-28T13:35:45.327Z</time>
      </trkpt>
      <trkpt lat="50.39335" lon="2.72124">
        <ele>89</ele>
        <time>2023-10-28T13:35:51.257Z</time>
      </trkpt>
      <trkpt lat="50.39361" lon="2.72121">
        <ele>90</ele>
        <time>2023-10-28T13:35:57.194Z</time>
      </trkpt>
      <trkpt lat="50.39383" lon="2.72129">
        <ele>90.4</ele>
        <time>2023-10-28T13:36:03.137Z</time>
      </trkpt>
      <trkpt lat="50.39383" lon="2.72196">
        <ele>90.8</ele>
        <time>2023-10-28T13:36:09.092Z</time>
      </trkpt>
      <trkpt lat="50.39395" lon="2.72228">
        <ele>91.4</ele>
        <time>2023-10-28T13:36:15.054Z</time>
      </trkpt>
      <trkpt lat="50.39419" lon="2.72231">
        <ele>92.6</ele>
        <time>2023-10-28T13:36:21.022Z</time>
      </trkpt>
      <trkpt lat="50.39453" lon="2.72234">
        <ele>97.6</ele>
        <time>2023-10-28T13:36:26.999Z</time>
      </trkpt>
      <trkpt lat="50.39475" lon="2.72237">
        <ele>102.2</ele>
        <time>2023-10-28T13:36:32.983Z</time>
      </trkpt>
      <trkpt lat="50.39492" lon="2.72239">
        <ele>104.6</ele>
        <time>2023-10-28T13:36:38.971Z</time>
      </trkpt>
      <trkpt lat="50.39529" lon="2.72244">
        <ele>109</ele>
        <time>2023-10-28T13:36:44.969Z</time>
      </trkpt>
      <trkpt lat="50.39547" lon="2.72232">
        <ele>109.8</ele>
        <time>2023-10-28T13:36:50.973Z</time>
      </trkpt>
      <trkpt lat="50.39571" lon="2.72207">
        <ele>111.8</ele>
        <time>2023-10-28T13:36:56.985Z</time>
      </trkpt>
      <trkpt lat="50.39598" lon="2.72179">
        <ele>112.2</ele>
        <time>2023-10-28T13:37:03.005Z</time>
      </trkpt>
      <trkpt lat="50.39626" lon="2.7215">
        <ele>112.8</ele>
        <time>2023-10-28T13:37:09.035Z</time>
      </trkpt>
      <trkpt lat="50.39642" lon="2.72133">
        <ele>113.4</ele>
        <time>2023-10-28T13:37:15.070Z</time>
      </trkpt>
      <trkpt lat="50.39651" lon="2.72124">
        <ele>113.6</ele>
        <time>2023-10-28T13:37:21.108Z</time>
      </trkpt>
      <trkpt lat="50.39662" lon="2.72112">
        <ele>114.2</ele>
        <time>2023-10-28T13:37:27.149Z</time>
      </trkpt>
      <trkpt lat="50.39672" lon="2.72102">
        <ele>114</ele>
        <time>2023-10-28T13:37:33.194Z</time>
      </trkpt>
      <trkpt lat="50.39678" lon="2.72077">
        <ele>113.2</ele>
        <time>2023-10-28T13:37:39.243Z</time>
      </trkpt>
      <trkpt lat="50.3968" lon="2.72011">
        <ele>112.2</ele>
        <time>2023-10-28T13:37:45.304Z</time>
      </trkpt>
      <trkpt lat="50.39677" lon="2.71962">
        <ele>112.6</ele>
        <time>2023-10-28T13:37:51.374Z</time>
      </trkpt>
      <trkpt lat="50.39666" lon="2.7193">
        <ele>113.6</ele>
        <time>2023-10-28T13:37:57.450Z</time>
      </trkpt>
      <trkpt lat="50.39652" lon="2.719">
        <ele>115.6</ele>
        <time>2023-10-28T13:38:03.532Z</time>
      </trkpt>
      <trkpt lat="50.39633" lon="2.71852">
        <ele>117.4</ele>
        <time>2023-10-28T13:38:09.624Z</time>
      </trkpt>
      <trkpt lat="50.39631" lon="2.71809">
        <ele>118.8</ele>
        <time>2023-10-28T13:38:15.724Z</time>
      </trkpt>
      <trkpt lat="50.39637" lon="2.71761">
        <ele>122.6</ele>
        <time>2023-10-28T13:38:21.832Z</time>
      </trkpt>
      <trkpt lat="50.3964" lon="2.71732">
        <ele>126</ele>
        <time>2023-10-28T13:38:27.945Z</time>
      </trkpt>
      <trkpt lat="50.39641" lon="2.71718">
        <ele>127.6</ele>
        <time>2023-10-28T13:38:34.061Z</time>
      </trkpt>
      <trkpt lat="50.39633" lon="2.71711">
        <ele>127.6</ele>
        <time>2023-10-28T13:38:40.179Z</time>
      </trkpt>
      <trkpt lat="50.39609" lon="2.71705">
        <ele>126.6</ele>
        <time>2023-10-28T13:38:46.304Z</time>
      </trkpt>
      <trkpt lat="50.39601" lon="2.717">
        <ele>126.8</ele>
        <time>2023-10-28T13:38:52.431Z</time>
      </trkpt>
      <trkpt lat="50.39597" lon="2.71694">
        <ele>127</ele>
        <time>2023-10-28T13:38:58.560Z</time>
      </trkpt>
      <trkpt lat="50.39591" lon="2.71695">
        <ele>126.8</ele>
        <time>2023-10-28T13:39:04.691Z</time>
      </trkpt>
      <trkpt lat="50.39583" lon="2.71697">
        <ele>126.4</ele>
        <time>2023-10-28T13:39:10.824Z</time>
      </trkpt>
      <trkpt lat="50.39561" lon="2.71696">
        <ele>125.2</ele>
        <time>2023-10-28T13:39:16.963Z</time>
      </trkpt>
      <trkpt lat="50.3952" lon="2.71687">
        <ele>123.4</ele>
        <time>2023-10-28T13:39:23.113Z</time>
      </trkpt>
      <trkpt lat="50.39466" lon="2.71684">
        <ele>115.8</ele>
        <time>2023-10-28T13:39:29.278Z</time>
      </trkpt>
      <trkpt lat="50.39451" lon="2.71687">
        <ele>112.6</ele>
        <time>2023-10-28T13:39:35.447Z</time>
      </trkpt>
      <trkpt lat="50.39443" lon="2.71667">
        <ele>111.2</ele>
        <time>2023-10-28T13:39:41.620Z</time>
      </trkpt>
      <trkpt lat="50.39441" lon="2.7164">
        <ele>110.8</ele>
        <time>2023-10-28T13:39:47.798Z</time>
      </trkpt>
      <trkpt lat="50.39441" lon="2.71612">
        <ele>110.6</ele>
        <time>2023-10-28T13:39:53.981Z</time>
      </trkpt>
      <trkpt lat="50.39441" lon="2.71565">
        <ele>108.8</ele>
        <time>2023-10-28T13:40:00.172Z</time>
      </trkpt>
      <trkpt lat="50.39442" lon="2.7152">
        <ele>105</ele>
        <time>2023-10-28T13:40:06.371Z</time>
      </trkpt>
      <trkpt lat="50.39451" lon="2.71473">
        <ele>102.8</ele>
        <time>2023-10-28T13:40:12.578Z</time>
      </trkpt>
      <trkpt lat="50.39467" lon="2.71426">
        <ele>98.4</ele>
        <time>2023-10-28T13:40:18.795Z</time>
      </trkpt>
      <trkpt lat="50.39479" lon="2.71397">
        <ele>96.8</ele>
        <time>2023-10-28T13:40:25.018Z</time>
      </trkpt>
      <trkpt lat="50.39489" lon="2.71364">
        <ele>97.6</ele>
        <time>2023-10-28T13:40:31.247Z</time>
      </trkpt>
      <trkpt lat="50.39495" lon="2.71304">
        <ele>102</ele>
        <time>2023-10-28T13:40:37.487Z</time>
      </trkpt>
      <trkpt lat="50.39492" lon="2.71258">
        <ele>102.4</ele>
        <time>2023-10-28T13:40:43.735Z</time>
      </trkpt>
      <trkpt lat="50.39491" lon="2.71213">
        <ele>102.2</ele>
        <time>2023-10-28T13:40:49.991Z</time>
      </trkpt>
      <trkpt lat="50.39499" lon="2.71143">
        <ele>102.2</ele>
        <time>2023-10-28T13:40:56.259Z</time>
      </trkpt>
      <trkpt lat="50.39509" lon="2.7107">
        <ele>102</ele>
        <time>2023-10-28T13:41:02.540Z</time>
      </trkpt>
      <trkpt lat="50.39517" lon="2.7103">
        <ele>100</ele>
        <time>2023-10-28T13:41:08.828Z</time>
      </trkpt>
      <trkpt lat="50.39525" lon="2.71012">
        <ele>100.2</ele>
        <time>2023-10-28T13:41:15.120Z</time>
      </trkpt>
      <trkpt lat="50.39531" lon="2.70995">
        <ele>100.2</ele>
        <time>2023-10-28T13:41:21.416Z</time>
      </trkpt>
      <trkpt lat="50.39539" lon="2.70969">
        <ele>100</ele>
        <time>2023-10-28T13:41:27.717Z</time>
      </trkpt>
      <trkpt lat="50.39554" lon="2.70936">
        <ele>98.6</ele>
        <time>2023-10-28T13:41:34.025Z</time>
      </trkpt>
      <trkpt lat="50.39567" lon="2.70878">
        <ele>99.4</ele>
        <time>2023-10-28T13:41:40.344Z</time>
      </trkpt>
      <trkpt lat="50.39577" lon="2.70811">
        <ele>106.4</ele>
        <time>2023-10-28T13:41:46.675Z</time>
      </trkpt>
      <trkpt lat="50.39587" lon="2.7074">
        <ele>105.4</ele>
        <time>2023-10-28T13:41:53.018Z</time>
      </trkpt>
      <trkpt lat="50.39596" lon="2.70683">
        <ele>102.4</ele>
        <time>2023-10-28T13:41:59.372Z</time>
      </trkpt>
      <trkpt lat="50.396" lon="2.70653">
        <ele>100.6</ele>
        <time>2023-10-28T13:42:05.731Z</time>
      </trkpt>
      <trkpt lat="50.396" lon="2.70636">
        <ele>99.8</ele>
        <time>2023-10-28T13:42:12.093Z</time>
      </trkpt>
      <trkpt lat="50.39608" lon="2.70622">
        <ele>99.4</ele>
        <time>2023-10-28T13:42:18.458Z</time>
      </trkpt>
      <trkpt lat="50.39618" lon="2.70612">
        <ele>103.2</ele>
        <time>2023-10-28T13:42:24.826Z</time>
      </trkpt>
      <trkpt lat="50.39636" lon="2.70588">
        <ele>107</ele>
        <time>2023-10-28T13:42:31.201Z</time>
      </trkpt>
      <trkpt lat="50.39633" lon="2.70554">
        <ele>105.4</ele>
        <time>2023-10-28T13:42:37.582Z</time>
      </trkpt>
      <trkpt lat="50.39632" lon="2.70519">
        <ele>105.2</ele>
        <time>2023-10-28T13:42:43.969Z</time>
      </trkpt>
      <trkpt lat="50.39633" lon="2.70501">
        <ele>105.2</ele>
        <time>2023-10-28T13:42:50.359Z</time>
      </trkpt>
      <trkpt lat="50.39634" lon="2.70487">
        <ele>104.4</ele>
        <time>2023-10-28T13:42:56.752Z</time>
      </trkpt>
      <trkpt lat="50.39634" lon="2.70476">
        <ele>103.8</ele>
        <time>2023-10-28T13:43:03.146Z</time>
      </trkpt>
      <trkpt lat="50.39627" lon="2.70455">
        <ele>102.8</ele>
        <time>2023-10-28T13:43:09.545Z</time>
      </trkpt>
      <trkpt lat="50.3962" lon="2.70428">
        <ele>101.6</ele>
        <time>2023-10-28T13:43:15.949Z</time>
      </trkpt>
      <trkpt lat="50.3962" lon="2.70386">
        <ele>103.8</ele>
        <time>2023-10-28T13:43:22.360Z</time>
      </trkpt>
      <trkpt lat="50.39621" lon="2.70338">
        <ele>105.2</ele>
        <time>2023-10-28T13:43:28.779Z</time>
      </trkpt>
      <trkpt lat="50.39622" lon="2.70291">
        <ele>104.6</ele>
        <time>2023-10-28T13:43:35.207Z</time>
      </trkpt>
      <trkpt lat="50.39624" lon="2.70226">
        <ele>101.6</ele>
        <time>2023-10-28T13:43:41.646Z</time>
      </trkpt>
      <trkpt lat="50.3963" lon="2.70174">
        <ele>101.4</ele>
        <time>2023-10-28T13:43:48.094Z</time>
      </trkpt>
      <trkpt lat="50.39634" lon="2.70142">
        <ele>101.6</ele>
        <time>2023-10-28T13:43:54.548Z</time>
      </trkpt>
      <trkpt lat="50.39634" lon="2.70127">
        <ele>101.6</ele>
        <time>2023-10-28T13:44:01.005Z</time>
      </trkpt>
      <trkpt lat="50.39625" lon="2.7012">
        <ele>100.4</ele>
        <time>2023-10-28T13:44:07.464Z</time>
      </trkpt>
      <trkpt lat="50.39617" lon="2.70118">
        <ele>99.2</ele>
        <time>2023-10-28T13:44:13.925Z</time>
      </trkpt>
      <trkpt lat="50.39584" lon="2.70106">
        <ele>98</ele>
        <time>2023-10-28T13:44:20.396Z</time>
      </trkpt>
      <trkpt lat="50.3957" lon="2.70102">
        <ele>98.4</ele>
        <time>2023-10-28T13:44:26.871Z</time>
      </trkpt>
      <trkpt lat="50.39564" lon="2.70099">
        <ele>98.6</ele>
        <time>2023-10-28T13:44:33.347Z</time>
      </trkpt>
      <trkpt lat="50.39567" lon="2.70069">
        <ele>98.4</ele>
        <time>2023-10-28T13:44:39.829Z</time>
      </trkpt>
      <trkpt lat="50.39569" lon="2.70065">
        <ele>98.4</ele>
        <time>2023-10-28T13:44:46.312Z</time>
      </trkpt>
      <trkpt lat="50.39571" lon="2.7006">
        <ele>98.4</ele>
        <time>2023-10-28T13:44:52.796Z</time>
      </trkpt>
      <trkpt lat="50.39595" lon="2.69994">
        <ele>100</ele>
        <time>2023-10-28T13:44:59.293Z</time>
      </trkpt>
      <trkpt lat="50.39613" lon="2.69937">
        <ele>101.4</ele>
        <time>2023-10-28T13:45:05.801Z</time>
      </trkpt>
      <trkpt lat="50.39626" lon="2.6988">
        <ele>100.8</ele>
        <time>2023-10-28T13:45:12.320Z</time>
      </trkpt>
      <trkpt lat="50.39647" lon="2.69779">
        <ele>103</ele>
        <time>2023-10-28T13:45:18.857Z</time>
      </trkpt>
      <trkpt lat="50.39653" lon="2.69731">
        <ele>104.4</ele>
        <time>2023-10-28T13:45:25.403Z</time>
      </trkpt>
      <trkpt lat="50.3967" lon="2.6967">
        <ele>105.8</ele>
        <time>2023-10-28T13:45:31.960Z</time>
      </trkpt>
      <trkpt lat="50.39698" lon="2.69598">
        <ele>106.8</ele>
        <time>2023-10-28T13:45:38.532Z</time>
      </trkpt>
      <trkpt lat="50.39728" lon="2.69561">
        <ele>107.6</ele>
        <time>2023-10-28T13:45:45.114Z</time>
      </trkpt>
      <trkpt lat="50.3974" lon="2.69559">
        <ele>108.4</ele>
        <time>2023-10-28T13:45:51.700Z</time>
      </trkpt>
      <trkpt lat="50.39752" lon="2.69558">
        <ele>109.6</ele>
        <time>2023-10-28T13:45:58.289Z</time>
      </trkpt>
      <trkpt lat="50.3976" lon="2.69557">
        <ele>111</ele>
        <time>2023-10-28T13:46:04.880Z</time>
      </trkpt>
      <trkpt lat="50.39771" lon="2.69556">
        <ele>112.8</ele>
        <time>2023-10-28T13:46:11.474Z</time>
      </trkpt>
      <trkpt lat="50.39781" lon="2.69555">
        <ele>114.4</ele>
        <time>2023-10-28T13:46:18.071Z</time>
      </trkpt>
      <trkpt lat="50.39797" lon="2.69557">
        <ele>116.8</ele>
        <time>2023-10-28T13:46:24.672Z</time>
      </trkpt>
      <trkpt lat="50.39804" lon="2.6956">
        <ele>118</ele>
        <time>2023-10-28T13:46:31.275Z</time>
      </trkpt>
      <trkpt lat="50.39814" lon="2.69565">
        <ele>119.2</ele>
        <time>2023-10-28T13:46:37.881Z</time>
      </trkpt>
      <trkpt lat="50.39826" lon="2.6957">
        <ele>120.6</ele>
        <time>2023-10-28T13:46:44.491Z</time>
      </trkpt>
      <trkpt lat="50.39835" lon="2.69574">
        <ele>121.4</ele>
        <time>2023-10-28T13:46:51.103Z</time>
      </trkpt>
      <trkpt lat="50.39872" lon="2.69591">
        <ele>124.6</ele>
        <time>2023-10-28T13:46:57.726Z</time>
      </trkpt>
      <trkpt lat="50.39881" lon="2.69594">
        <ele>125.8</ele>
        <time>2023-10-28T13:47:04.351Z</time>
      </trkpt>
      <trkpt lat="50.39896" lon="2.69596">
        <ele>127.6</ele>
        <time>2023-10-28T13:47:10.980Z</time>
      </trkpt>
      <trkpt lat="50.39902" lon="2.69597">
        <ele>128.6</ele>
        <time>2023-10-28T13:47:17.611Z</time>
      </trkpt>
      <trkpt lat="50.39913" lon="2.69599">
        <ele>130.2</ele>
        <time>2023-10-28T13:47:24.245Z</time>
      </trkpt>
      <trkpt lat="50.39933" lon="2.69603">
        <ele>132.2</ele>
        <time>2023-10-28T13:47:30.885Z</time>
      </trkpt>
      <trkpt lat="50.39942" lon="2.69604">
        <ele>133</ele>
        <time>2023-10-28T13:47:37.527Z</time>
      </trkpt>
      <trkpt lat="50.39963" lon="2.69607">
        <ele>135.2</ele>
        <time>2023-10-28T13:47:44.175Z</time>
      </trkpt>
      <trkpt lat="50.39974" lon="2.69607">
        <ele>136.6</ele>
        <time>2023-10-28T13:47:50.826Z</time>
      </trkpt>
      <trkpt lat="50.40004" lon="2.69609">
        <ele>140.4</ele>
        <time>2023-10-28T13:47:57.485Z</time>
      </trkpt>
      <trkpt lat="50.40025" lon="2.6961">
        <ele>142</ele>
        <time>2023-10-28T13:48:04.150Z</time>
      </trkpt>
      <trkpt lat="50.40052" lon="2.69612">
        <ele>144.8</ele>
        <time>2023-10-28T13:48:10.822Z</time>
      </trkpt>
      <trkpt lat="50.40078" lon="2.69613">
        <ele>146.8</ele>
        <time>2023-10-28T13:48:17.501Z</time>
      </trkpt>
      <trkpt lat="50.40106" lon="2.69617">
        <ele>149.6</ele>
        <time>2023-10-28T13:48:24.188Z</time>
      </trkpt>
      <trkpt lat="50.40131" lon="2.69628">
        <ele>149.6</ele>
        <time>2023-10-28T13:48:30.882Z</time>
      </trkpt>
      <trkpt lat="50.40154" lon="2.69638">
        <ele>150</ele>
        <time>2023-10-28T13:48:37.582Z</time>
      </trkpt>
      <trkpt lat="50.40174" lon="2.69647">
        <ele>151.8</ele>
        <time>2023-10-28T13:48:44.288Z</time>
      </trkpt>
      <trkpt lat="50.40196" lon="2.69656">
        <ele>155.2</ele>
        <time>2023-10-28T13:48:51.000Z</time>
      </trkpt>
      <trkpt lat="50.40208" lon="2.69661">
        <ele>157.2</ele>
        <time>2023-10-28T13:48:57.716Z</time>
      </trkpt>
      <trkpt lat="50.40224" lon="2.69668">
        <ele>160</ele>
        <time>2023-10-28T13:49:04.437Z</time>
      </trkpt>
      <trkpt lat="50.40242" lon="2.69676">
        <ele>162</ele>
        <time>2023-10-28T13:49:11.162Z</time>
      </trkpt>
      <trkpt lat="50.40251" lon="2.69679">
        <ele>163</ele>
        <time>2023-10-28T13:49:17.890Z</time>
      </trkpt>
      <trkpt lat="50.40263" lon="2.69685">
        <ele>164.8</ele>
        <time>2023-10-28T13:49:24.621Z</time>
      </trkpt>
      <trkpt lat="50.40269" lon="2.69687">
        <ele>165.6</ele>
        <time>2023-10-28T13:49:31.354Z</time>
      </trkpt>
      <trkpt lat="50.40281" lon="2.69692">
        <ele>167.2</ele>
        <time>2023-10-28T13:49:38.091Z</time>
      </trkpt>
      <trkpt lat="50.40287" lon="2.69695">
        <ele>168.4</ele>
        <time>2023-10-28T13:49:44.829Z</time>
      </trkpt>
      <trkpt lat="50.40297" lon="2.69699">
        <ele>170</ele>
        <time>2023-10-28T13:49:51.570Z</time>
      </trkpt>
      <trkpt lat="50.40315" lon="2.69707">
        <ele>174</ele>
        <time>2023-10-28T13:49:58.316Z</time>
      </trkpt>
      <trkpt lat="50.40329" lon="2.69713">
        <ele>177.4</ele>
        <time>2023-10-28T13:50:05.066Z</time>
      </trkpt>
      <trkpt lat="50.40342" lon="2.69718">
        <ele>179.6</ele>
        <time>2023-10-28T13:50:11.820Z</time>
      </trkpt>
      <trkpt lat="50.40352" lon="2.69723">
        <ele>181</ele>
        <time>2023-10-28T13:50:18.577Z</time>
      </trkpt>
      <trkpt lat="50.40358" lon="2.69719">
        <ele>182</ele>
        <time>2023-10-28T13:50:25.336Z</time>
      </trkpt>
      <trkpt lat="50.40365" lon="2.69715">
        <ele>182.6</ele>
        <time>2023-10-28T13:50:32.096Z</time>
      </trkpt>
      <trkpt lat="50.40375" lon="2.69708">
        <ele>183.8</ele>
        <time>2023-10-28T13:50:38.860Z</time>
      </trkpt>
      <trkpt lat="50.40382" lon="2.69703">
        <ele>184.6</ele>
        <time>2023-10-28T13:50:45.626Z</time>
      </trkpt>
      <trkpt lat="50.40389" lon="2.69706">
        <ele>185</ele>
        <time>2023-10-28T13:50:52.393Z</time>
      </trkpt>
      <trkpt lat="50.40387" lon="2.69714">
        <ele>185</ele>
        <time>2023-10-28T13:50:59.162Z</time>
      </trkpt>
      <trkpt lat="50.40386" lon="2.69724">
        <ele>185</ele>
        <time>2023-10-28T13:51:05.933Z</time>
      </trkpt>
      <trkpt lat="50.40384" lon="2.69731">
        <ele>184.8</ele>
        <time>2023-10-28T13:51:12.705Z</time>
      </trkpt>
      <trkpt lat="50.40382" lon="2.69744">
        <ele>184.6</ele>
        <time>2023-10-28T13:51:19.479Z</time>
      </trkpt>
      <trkpt lat="50.4038" lon="2.69758">
        <ele>184.6</ele>
        <time>2023-10-28T13:51:26.256Z</time>
      </trkpt>
      <trkpt lat="50.40376" lon="2.69777">
        <ele>185.2</ele>
        <time>2023-10-28T13:51:33.036Z</time>
      </trkpt>
      <trkpt lat="50.40371" lon="2.69807">
        <ele>186.8</ele>
        <time>2023-10-28T13:51:39.822Z</time>
      </trkpt>
      <trkpt lat="50.40369" lon="2.6982">
        <ele>187.4</ele>
        <time>2023-10-28T13:51:46.610Z</time>
      </trkpt>
      <trkpt lat="50.40364" lon="2.69849">
        <ele>188.6</ele>
        <time>2023-10-28T13:51:53.403Z</time>
      </trkpt>
      <trkpt lat="50.40362" lon="2.69858">
        <ele>189.2</ele>
        <time>2023-10-28T13:52:00.198Z</time>
      </trkpt>
      <trkpt lat="50.40356" lon="2.69892">
        <ele>191</ele>
        <time>2023-10-28T13:52:06.999Z</time>
      </trkpt>
      <trkpt lat="50.40352" lon="2.69914">
        <ele>191.6</ele>
        <time>2023-10-28T13:52:13.804Z</time>
      </trkpt>
      <trkpt lat="50.4035" lon="2.69922">
        <ele>192</ele>
        <time>2023-10-28T13:52:20.611Z</time>
      </trkpt>
      <trkpt lat="50.40348" lon="2.69938">
        <ele>192.6</ele>
        <time>2023-10-28T13:52:27.421Z</time>
      </trkpt>
      <trkpt lat="50.40346" lon="2.69949">
        <ele>193</ele>
        <time>2023-10-28T13:52:34.233Z</time>
      </trkpt>
      <trkpt lat="50.40344" lon="2.69958">
        <ele>192.8</ele>
        <time>2023-10-28T13:52:41.046Z</time>
      </trkpt>
      <trkpt lat="50.40338" lon="2.6999">
        <ele>191.6</ele>
        <time>2023-10-28T13:52:47.865Z</time>
      </trkpt>
      <trkpt lat="50.40331" lon="2.70031">
        <ele>188.2</ele>
        <time>2023-10-28T13:52:54.691Z</time>
      </trkpt>
      <trkpt lat="50.40323" lon="2.70073">
        <ele>184.4</ele>
        <time>2023-10-28T13:53:01.525Z</time>
      </trkpt>
      <trkpt lat="50.40311" lon="2.70144">
        <ele>180.4</ele>
        <time>2023-10-28T13:53:08.372Z</time>
      </trkpt>
      <trkpt lat="50.40304" lon="2.70225">
        <ele>180</ele>
        <time>2023-10-28T13:53:15.233Z</time>
      </trkpt>
      <trkpt lat="50.40299" lon="2.7028">
        <ele>181.4</ele>
        <time>2023-10-28T13:53:22.104Z</time>
      </trkpt>
      <trkpt lat="50.40294" lon="2.70321">
        <ele>181.4</ele>
        <time>2023-10-28T13:53:28.982Z</time>
      </trkpt>
      <trkpt lat="50.40289" lon="2.70353">
        <ele>180.4</ele>
        <time>2023-10-28T13:53:35.866Z</time>
      </trkpt>
      <trkpt lat="50.40283" lon="2.70415">
        <ele>180.2</ele>
        <time>2023-10-28T13:53:42.761Z</time>
      </trkpt>
      <trkpt lat="50.40284" lon="2.70429">
        <ele>180.8</ele>
        <time>2023-10-28T13:53:49.658Z</time>
      </trkpt>
      <trkpt lat="50.40285" lon="2.7045">
        <ele>181</ele>
        <time>2023-10-28T13:53:56.559Z</time>
      </trkpt>
      <trkpt lat="50.40285" lon="2.70469">
        <ele>181.4</ele>
        <time>2023-10-28T13:54:03.463Z</time>
      </trkpt>
      <trkpt lat="50.40284" lon="2.70502">
        <ele>182.2</ele>
        <time>2023-10-28T13:54:10.373Z</time>
      </trkpt>
      <trkpt lat="50.40276" lon="2.70539">
        <ele>182</ele>
        <time>2023-10-28T13:54:17.290Z</time>
      </trkpt>
      <trkpt lat="50.40267" lon="2.70605">
        <ele>181.8</ele>
        <time>2023-10-28T13:54:24.219Z</time>
      </trkpt>
      <trkpt lat="50.40263" lon="2.70631">
        <ele>182</ele>
        <time>2023-10-28T13:54:31.152Z</time>
      </trkpt>
      <trkpt lat="50.40249" lon="2.70701">
        <ele>182.8</ele>
        <time>2023-10-28T13:54:38.098Z</time>
      </trkpt>
      <trkpt lat="50.40245" lon="2.70718">
        <ele>183</ele>
        <time>2023-10-28T13:54:45.047Z</time>
      </trkpt>
      <trkpt lat="50.40228" lon="2.70781">
        <ele>182.6</ele>
        <time>2023-10-28T13:54:52.008Z</time>
      </trkpt>
      <trkpt lat="50.40212" lon="2.70833">
        <ele>181.8</ele>
        <time>2023-10-28T13:54:58.980Z</time>
      </trkpt>
      <trkpt lat="50.40203" lon="2.70857">
        <ele>182</ele>
        <time>2023-10-28T13:55:05.956Z</time>
      </trkpt>
      <trkpt lat="50.40195" lon="2.70876">
        <ele>181.8</ele>
        <time>2023-10-28T13:55:12.936Z</time>
      </trkpt>
      <trkpt lat="50.40162" lon="2.70959">
        <ele>177.8</ele>
        <time>2023-10-28T13:55:19.933Z</time>
      </trkpt>
      <trkpt lat="50.40133" lon="2.71042">
        <ele>177.4</ele>
        <time>2023-10-28T13:55:26.947Z</time>
      </trkpt>
      <trkpt lat="50.40112" lon="2.71072">
        <ele>176.4</ele>
        <time>2023-10-28T13:55:33.969Z</time>
      </trkpt>
      <trkpt lat="50.40092" lon="2.71118">
        <ele>177</ele>
        <time>2023-10-28T13:55:41.000Z</time>
      </trkpt>
      <trkpt lat="50.40078" lon="2.71154">
        <ele>176.6</ele>
        <time>2023-10-28T13:55:48.039Z</time>
      </trkpt>
      <trkpt lat="50.40067" lon="2.7118">
        <ele>176.2</ele>
        <time>2023-10-28T13:55:55.083Z</time>
      </trkpt>
      <trkpt lat="50.40056" lon="2.71218">
        <ele>176.8</ele>
        <time>2023-10-28T13:56:02.135Z</time>
      </trkpt>
      <trkpt lat="50.40047" lon="2.71264">
        <ele>177.6</ele>
        <time>2023-10-28T13:56:09.195Z</time>
      </trkpt>
      <trkpt lat="50.40038" lon="2.71302">
        <ele>178.6</ele>
        <time>2023-10-28T13:56:16.262Z</time>
      </trkpt>
      <trkpt lat="50.40027" lon="2.71347">
        <ele>178.8</ele>
        <time>2023-10-28T13:56:23.337Z</time>
      </trkpt>
      <trkpt lat="50.40023" lon="2.71364">
        <ele>177.6</ele>
        <time>2023-10-28T13:56:30.416Z</time>
      </trkpt>
      <trkpt lat="50.40035" lon="2.71374">
        <ele>178.4</ele>
        <time>2023-10-28T13:56:37.499Z</time>
      </trkpt>
      <trkpt lat="50.40077" lon="2.71376">
        <ele>180.6</ele>
        <time>2023-10-28T13:56:44.593Z</time>
      </trkpt>
      <trkpt lat="50.40113" lon="2.71379">
        <ele>181.6</ele>
        <time>2023-10-28T13:56:51.697Z</time>
      </trkpt>
      <trkpt lat="50.40142" lon="2.71383">
        <ele>181.4</ele>
        <time>2023-10-28T13:56:58.809Z</time>
      </trkpt>
      <trkpt lat="50.40151" lon="2.71422">
        <ele>180.4</ele>
        <time>2023-10-28T13:57:05.928Z</time>
      </trkpt>
      <trkpt lat="50.4016" lon="2.71445">
        <ele>179.4</ele>
        <time>2023-10-28T13:57:13.052Z</time>
      </trkpt>
      <trkpt lat="50.40167" lon="2.71466">
        <ele>178.8</ele>
        <time>2023-10-28T13:57:20.180Z</time>
      </trkpt>
      <trkpt lat="50.40163" lon="2.71501">
        <ele>179.2</ele>
        <time>2023-10-28T13:57:27.314Z</time>
      </trkpt>
      <trkpt lat="50.40158" lon="2.71547">
        <ele>179.6</ele>
        <time>2023-10-28T13:57:34.456Z</time>
      </trkpt>
      <trkpt lat="50.40157" lon="2.71573">
        <ele>180.2</ele>
        <time>2023-10-28T13:57:41.603Z</time>
      </trkpt>
      <trkpt lat="50.40158" lon="2.71592">
        <ele>180.4</ele>
        <time>2023-10-28T13:57:48.753Z</time>
      </trkpt>
      <trkpt lat="50.40165" lon="2.71647">
        <ele>179</ele>
        <time>2023-10-28T13:57:55.913Z</time>
      </trkpt>
      <trkpt lat="50.40173" lon="2.71665">
        <ele>178</ele>
        <time>2023-10-28T13:58:03.077Z</time>
      </trkpt>
      <trkpt lat="50.40203" lon="2.71708">
        <ele>175.6</ele>
        <time>2023-10-28T13:58:10.252Z</time>
      </trkpt>
      <trkpt lat="50.40219" lon="2.71744">
        <ele>175</ele>
        <time>2023-10-28T13:58:17.435Z</time>
      </trkpt>
      <trkpt lat="50.40246" lon="2.718">
        <ele>173.8</ele>
        <time>2023-10-28T13:58:24.630Z</time>
      </trkpt>
      <trkpt lat="50.40288" lon="2.71927">
        <ele>170.2</ele>
        <time>2023-10-28T13:58:31.850Z</time>
      </trkpt>
      <trkpt lat="50.40309" lon="2.72051">
        <ele>169.8</ele>
        <time>2023-10-28T13:58:39.092Z</time>
      </trkpt>
      <trkpt lat="50.40311" lon="2.72119">
        <ele>165.6</ele>
        <time>2023-10-28T13:58:46.346Z</time>
      </trkpt>
      <trkpt lat="50.40308" lon="2.72162">
        <ele>162.6</ele>
        <time>2023-10-28T13:58:53.608Z</time>
      </trkpt>
      <trkpt lat="50.40296" lon="2.72212">
        <ele>159.6</ele>
        <time>2023-10-28T13:59:00.879Z</time>
      </trkpt>
      <trkpt lat="50.40288" lon="2.72244">
        <ele>159</ele>
        <time>2023-10-28T13:59:08.156Z</time>
      </trkpt>
      <trkpt lat="50.40288" lon="2.72266">
        <ele>157.6</ele>
        <time>2023-10-28T13:59:15.437Z</time>
      </trkpt>
      <trkpt lat="50.403" lon="2.72276">
        <ele>155.6</ele>
        <time>2023-10-28T13:59:22.722Z</time>
      </trkpt>
      <trkpt lat="50.40339" lon="2.72316">
        <ele>154</ele>
        <time>2023-10-28T13:59:30.019Z</time>
      </trkpt>
      <trkpt lat="50.40416" lon="2.72385">
        <ele>138.8</ele>
        <time>2023-10-28T13:59:37.341Z</time>
      </trkpt>
      <trkpt lat="50.40519" lon="2.72458">
        <ele>123.4</ele>
        <time>2023-10-28T13:59:44.694Z</time>
      </trkpt>
      <trkpt lat="50.40601" lon="2.72522">
        <ele>115.51</ele>
        <time>2023-10-28T13:59:52.072Z</time>
      </trkpt>
      <trkpt lat="50.40609" lon="2.72527">
        <ele>114.8</ele>
        <time>2023-10-28T13:59:59.452Z</time>
      </trkpt>
      <trkpt lat="50.40646" lon="2.72599">
        <ele>112.6</ele>
        <time>2023-10-28T14:00:06.848Z</time>
      </trkpt>
      <trkpt lat="50.40689" lon="2.72692">
        <ele>113</ele>
        <time>2023-10-28T14:00:14.264Z</time>
      </trkpt>
      <trkpt lat="50.40744" lon="2.72796">
        <ele>108.4</ele>
        <time>2023-10-28T14:00:21.704Z</time>
      </trkpt>
      <trkpt lat="50.40776" lon="2.72857">
        <ele>104</ele>
        <time>2023-10-28T14:00:29.158Z</time>
      </trkpt>
      <trkpt lat="50.40787" lon="2.72841">
        <ele>103.6</ele>
        <time>2023-10-28T14:00:36.616Z</time>
      </trkpt>
      <trkpt lat="50.40802" lon="2.72828">
        <ele>103.8</ele>
        <time>2023-10-28T14:00:44.079Z</time>
      </trkpt>
      <trkpt lat="50.40825" lon="2.72817">
        <ele>105.4</ele>
        <time>2023-10-28T14:00:51.548Z</time>
      </trkpt>
      <trkpt lat="50.40847" lon="2.72807">
        <ele>108.2</ele>
        <time>2023-10-28T14:00:59.023Z</time>
      </trkpt>
      <trkpt lat="50.40872" lon="2.72797">
        <ele>110.4</ele>
        <time>2023-10-28T14:01:06.505Z</time>
      </trkpt>
      <trkpt lat="50.4089" lon="2.7279">
        <ele>110</ele>
        <time>2023-10-28T14:01:13.992Z</time>
      </trkpt>
      <trkpt lat="50.4091" lon="2.72782">
        <ele>110</ele>
        <time>2023-10-28T14:01:21.485Z</time>
      </trkpt>
      <trkpt lat="50.40937" lon="2.72771">
        <ele>108.2</ele>
        <time>2023-10-28T14:01:28.986Z</time>
      </trkpt>
      <trkpt lat="50.40954" lon="2.72758">
        <ele>107.2</ele>
        <time>2023-10-28T14:01:36.492Z</time>
      </trkpt>
      <trkpt lat="50.40979" lon="2.72729">
        <ele>107.6</ele>
        <time>2023-10-28T14:01:44.006Z</time>
      </trkpt>
      <trkpt lat="50.40991" lon="2.72716">
        <ele>108.6</ele>
        <time>2023-10-28T14:01:51.524Z</time>
      </trkpt>
      <trkpt lat="50.41022" lon="2.72687">
        <ele>113</ele>
        <time>2023-10-28T14:01:59.052Z</time>
      </trkpt>
      <trkpt lat="50.41046" lon="2.72734">
        <ele>109.8</ele>
        <time>2023-10-28T14:02:06.591Z</time>
      </trkpt>
      <trkpt lat="50.41072" lon="2.72782">
        <ele>106.4</ele>
        <time>2023-10-28T14:02:14.141Z</time>
      </trkpt>
      <trkpt lat="50.41084" lon="2.72805">
        <ele>104.4</ele>
        <time>2023-10-28T14:02:21.696Z</time>
      </trkpt>
      <trkpt lat="50.41108" lon="2.7285">
        <ele>102</ele>
        <time>2023-10-28T14:02:29.261Z</time>
      </trkpt>
      <trkpt lat="50.41144" lon="2.7292">
        <ele>97.2</ele>
        <time>2023-10-28T14:02:36.842Z</time>
      </trkpt>
      <trkpt lat="50.41156" lon="2.72943">
        <ele>94.2</ele>
        <time>2023-10-28T14:02:44.428Z</time>
      </trkpt>
      <trkpt lat="50.41176" lon="2.72942">
        <ele>94</ele>
        <time>2023-10-28T14:02:52.020Z</time>
      </trkpt>
      <trkpt lat="50.41186" lon="2.72937">
        <ele>94</ele>
        <time>2023-10-28T14:02:59.614Z</time>
      </trkpt>
      <trkpt lat="50.41204" lon="2.72927">
        <ele>93.2</ele>
        <time>2023-10-28T14:03:07.214Z</time>
      </trkpt>
      <trkpt lat="50.41231" lon="2.72934">
        <ele>92</ele>
        <time>2023-10-28T14:03:14.821Z</time>
      </trkpt>
      <trkpt lat="50.41237" lon="2.72959">
        <ele>92</ele>
        <time>2023-10-28T14:03:22.433Z</time>
      </trkpt>
      <trkpt lat="50.41244" lon="2.72986">
        <ele>91.8</ele>
        <time>2023-10-28T14:03:30.050Z</time>
      </trkpt>
      <trkpt lat="50.41255" lon="2.73029">
        <ele>90</ele>
        <time>2023-10-28T14:03:37.675Z</time>
      </trkpt>
      <trkpt lat="50.4128" lon="2.73133">
        <ele>86.8</ele>
        <time>2023-10-28T14:03:45.319Z</time>
      </trkpt>
      <trkpt lat="50.41317" lon="2.73289">
        <ele>86.4</ele>
        <time>2023-10-28T14:03:52.993Z</time>
      </trkpt>
      <trkpt lat="50.41328" lon="2.7334">
        <ele>84.8</ele>
        <time>2023-10-28T14:04:00.676Z</time>
      </trkpt>
      <trkpt lat="50.41341" lon="2.73363">
        <ele>83.6</ele>
        <time>2023-10-28T14:04:08.364Z</time>
      </trkpt>
      <trkpt lat="50.41348" lon="2.73346">
        <ele>84.4</ele>
        <time>2023-10-28T14:04:16.056Z</time>
      </trkpt>
      <trkpt lat="50.41346" lon="2.73336">
        <ele>84.6</ele>
        <time>2023-10-28T14:04:23.750Z</time>
      </trkpt>
      <trkpt lat="50.41337" lon="2.73305">
        <ele>85.6</ele>
        <time>2023-10-28T14:04:31.450Z</time>
      </trkpt>
      <trkpt lat="50.41331" lon="2.7328">
        <ele>86</ele>
        <time>2023-10-28T14:04:39.154Z</time>
      </trkpt>
      <trkpt lat="50.41322" lon="2.73236">
        <ele>86.2</ele>
        <time>2023-10-28T14:04:46.866Z</time>
      </trkpt>
      <trkpt lat="50.41322" lon="2.73216">
        <ele>86</ele>
        <time>2023-10-28T14:04:54.582Z</time>
      </trkpt>
      <trkpt lat="50.41328" lon="2.73195">
        <ele>85.2</ele>
        <time>2023-10-28T14:05:02.302Z</time>
      </trkpt>
      <trkpt lat="50.41338" lon="2.73179">
        <ele>84.8</ele>
        <time>2023-10-28T14:05:10.026Z</time>
      </trkpt>
      <trkpt lat="50.41351" lon="2.73149">
        <ele>84.2</ele>
        <time>2023-10-28T14:05:17.756Z</time>
      </trkpt>
      <trkpt lat="50.41375" lon="2.73106">
        <ele>84.8</ele>
        <time>2023-10-28T14:05:25.496Z</time>
      </trkpt>
      <trkpt lat="50.41403" lon="2.73075">
        <ele>85</ele>
        <time>2023-10-28T14:05:33.245Z</time>
      </trkpt>
      <trkpt lat="50.41411" lon="2.73066">
        <ele>85</ele>
        <time>2023-10-28T14:05:40.997Z</time>
      </trkpt>
      <trkpt lat="50.41427" lon="2.73046">
        <ele>85.4</ele>
        <time>2023-10-28T14:05:48.755Z</time>
      </trkpt>
      <trkpt lat="50.41487" lon="2.72975">
        <ele>85</ele>
        <time>2023-10-28T14:05:56.533Z</time>
      </trkpt>
      <trkpt lat="50.41556" lon="2.72892">
        <ele>87</ele>
        <time>2023-10-28T14:06:04.335Z</time>
      </trkpt>
      <trkpt lat="50.41606" lon="2.72832">
        <ele>85.4</ele>
        <time>2023-10-28T14:06:12.154Z</time>
      </trkpt>
      <trkpt lat="50.41615" lon="2.72833">
        <ele>84.8</ele>
        <time>2023-10-28T14:06:19.976Z</time>
      </trkpt>
      <trkpt lat="50.41645" lon="2.72884">
        <ele>82.6</ele>
        <time>2023-10-28T14:06:27.810Z</time>
      </trkpt>
      <trkpt lat="50.41718" lon="2.73008">
        <ele>82</ele>
        <time>2023-10-28T14:06:35.674Z</time>
      </trkpt>
      <trkpt lat="50.4175" lon="2.73062">
        <ele>82</ele>
        <time>2023-10-28T14:06:43.550Z</time>
      </trkpt>
      <trkpt lat="50.41805" lon="2.73157">
        <ele>79.8</ele>
        <time>2023-10-28T14:06:51.449Z</time>
      </trkpt>
      <trkpt lat="50.41835" lon="2.73207">
        <ele>80.2</ele>
        <time>2023-10-28T14:06:59.360Z</time>
      </trkpt>
      <trkpt lat="50.41852" lon="2.73236">
        <ele>80.8</ele>
        <time>2023-10-28T14:07:07.278Z</time>
      </trkpt>
      <trkpt lat="50.4186" lon="2.73239">
        <ele>81</ele>
        <time>2023-10-28T14:07:15.198Z</time>
      </trkpt>
      <trkpt lat="50.41878" lon="2.73212">
        <ele>81.6</ele>
        <time>2023-10-28T14:07:23.125Z</time>
      </trkpt>
      <trkpt lat="50.41895" lon="2.73181">
        <ele>82</ele>
        <time>2023-10-28T14:07:31.059Z</time>
      </trkpt>
      <trkpt lat="50.41912" lon="2.73147">
        <ele>82</ele>
        <time>2023-10-28T14:07:39.000Z</time>
      </trkpt>
      <trkpt lat="50.41928" lon="2.73118">
        <ele>83</ele>
        <time>2023-10-28T14:07:46.948Z</time>
      </trkpt>
      <trkpt lat="50.41948" lon="2.73087">
        <ele>84.8</ele>
        <time>2023-10-28T14:07:54.904Z</time>
      </trkpt>
      <trkpt lat="50.41982" lon="2.73042">
        <ele>85</ele>
        <time>2023-10-28T14:08:02.872Z</time>
      </trkpt>
      <trkpt lat="50.42011" lon="2.73003">
        <ele>84</ele>
        <time>2023-10-28T14:08:10.850Z</time>
      </trkpt>
      <trkpt lat="50.42058" lon="2.72929">
        <ele>82.2</ele>
        <time>2023-10-28T14:08:18.847Z</time>
      </trkpt>
      <trkpt lat="50.42105" lon="2.72848">
        <ele>83.8</ele>
        <time>2023-10-28T14:08:26.863Z</time>
      </trkpt>
      <trkpt lat="50.42144" lon="2.72776">
        <ele>81</ele>
        <time>2023-10-28T14:08:34.895Z</time>
      </trkpt>
      <trkpt lat="50.42175" lon="2.72713">
        <ele>81</ele>
        <time>2023-10-28T14:08:42.941Z</time>
      </trkpt>
      <trkpt lat="50.4219" lon="2.72718">
        <ele>81</ele>
        <time>2023-10-28T14:08:50.991Z</time>
      </trkpt>
      <trkpt lat="50.42208" lon="2.72764">
        <ele>81.2</ele>
        <time>2023-10-28T14:08:59.051Z</time>
      </trkpt>
      <trkpt lat="50.42245" lon="2.7286">
        <ele>79.4</ele>
        <time>2023-10-28T14:09:07.130Z</time>
      </trkpt>
      <trkpt lat="50.42269" lon="2.7292">
        <ele>79.2</ele>
        <time>2023-10-28T14:09:15.222Z</time>
      </trkpt>
      <trkpt lat="50.42317" lon="2.73021">
        <ele>80.4</ele>
        <time>2023-10-28T14:09:23.336Z</time>
      </trkpt>
      <trkpt lat="50.42365" lon="2.73097">
        <ele>77.6</ele>
        <time>2023-10-28T14:09:31.468Z</time>
      </trkpt>
      <trkpt lat="50.42433" lon="2.73207">
        <ele>76</ele>
        <time>2023-10-28T14:09:39.627Z</time>
      </trkpt>
      <trkpt lat="50.425" lon="2.73313">
        <ele>75</ele>
        <time>2023-10-28T14:09:47.812Z</time>
      </trkpt>
      <trkpt lat="50.42524" lon="2.73353">
        <ele>74</ele>
        <time>2023-10-28T14:09:56.007Z</time>
      </trkpt>
      <trkpt lat="50.42537" lon="2.73382">
        <ele>74</ele>
        <time>2023-10-28T14:10:04.208Z</time>
      </trkpt>
      <trkpt lat="50.42511" lon="2.73409">
        <ele>74</ele>
        <time>2023-10-28T14:10:12.417Z</time>
      </trkpt>
      <trkpt lat="50.42476" lon="2.73448">
        <ele>74.6</ele>
        <time>2023-10-28T14:10:20.638Z</time>
      </trkpt>
      <trkpt lat="50.42453" lon="2.73474">
        <ele>76.4</ele>
        <time>2023-10-28T14:10:28.867Z</time>
      </trkpt>
      <trkpt lat="50.42436" lon="2.73493">
        <ele>77.8</ele>
        <time>2023-10-28T14:10:37.101Z</time>
      </trkpt>
      <trkpt lat="50.42407" lon="2.73527">
        <ele>78.2</ele>
        <time>2023-10-28T14:10:45.345Z</time>
      </trkpt>
      <trkpt lat="50.4238" lon="2.73558">
        <ele>80.2</ele>
        <time>2023-10-28T14:10:53.598Z</time>
      </trkpt>
      <trkpt lat="50.42365" lon="2.73578">
        <ele>80.8</ele>
        <time>2023-10-28T14:11:01.857Z</time>
      </trkpt>
      <trkpt lat="50.42352" lon="2.73599">
        <ele>80.4</ele>
        <time>2023-10-28T14:11:10.121Z</time>
      </trkpt>
      <trkpt lat="50.42341" lon="2.73619">
        <ele>79.4</ele>
        <time>2023-10-28T14:11:18.390Z</time>
      </trkpt>
      <trkpt lat="50.42333" lon="2.73643">
        <ele>79</ele>
        <time>2023-10-28T14:11:26.663Z</time>
      </trkpt>
      <trkpt lat="50.42299" lon="2.73739">
        <ele>77.4</ele>
        <time>2023-10-28T14:11:34.956Z</time>
      </trkpt>
      <trkpt lat="50.42257" lon="2.73822">
        <ele>75.6</ele>
        <time>2023-10-28T14:11:43.267Z</time>
      </trkpt>
      <trkpt lat="50.42216" lon="2.73896">
        <ele>74</ele>
        <time>2023-10-28T14:11:51.595Z</time>
      </trkpt>
      <trkpt lat="50.42156" lon="2.73994">
        <ele>72.4</ele>
        <time>2023-10-28T14:11:59.947Z</time>
      </trkpt>
      <trkpt lat="50.42129" lon="2.74073">
        <ele>75.6</ele>
        <time>2023-10-28T14:12:08.314Z</time>
      </trkpt>
      <trkpt lat="50.4211" lon="2.74135">
        <ele>75.4</ele>
        <time>2023-10-28T14:12:16.694Z</time>
      </trkpt>
      <trkpt lat="50.42093" lon="2.74185">
        <ele>74.6</ele>
        <time>2023-10-28T14:12:25.083Z</time>
      </trkpt>
      <trkpt lat="50.42072" lon="2.74242">
        <ele>76</ele>
        <time>2023-10-28T14:12:33.484Z</time>
      </trkpt>
      <trkpt lat="50.42048" lon="2.74288">
        <ele>77</ele>
        <time>2023-10-28T14:12:41.895Z</time>
      </trkpt>
      <trkpt lat="50.42027" lon="2.74319">
        <ele>76</ele>
        <time>2023-10-28T14:12:50.314Z</time>
      </trkpt>
      <trkpt lat="50.42006" lon="2.7435">
        <ele>76</ele>
        <time>2023-10-28T14:12:58.741Z</time>
      </trkpt>
      <trkpt lat="50.41964" lon="2.74412">
        <ele>76.6</ele>
        <time>2023-10-28T14:13:07.184Z</time>
      </trkpt>
      <trkpt lat="50.41952" lon="2.74429">
        <ele>76.4</ele>
        <time>2023-10-28T14:13:15.631Z</time>
      </trkpt>
      <trkpt lat="50.41919" lon="2.74471">
        <ele>75.2</ele>
        <time>2023-10-28T14:13:24.090Z</time>
      </trkpt>
      <trkpt lat="50.41888" lon="2.74505">
        <ele>75</ele>
        <time>2023-10-28T14:13:32.559Z</time>
      </trkpt>
      <trkpt lat="50.41864" lon="2.74531">
        <ele>74.2</ele>
        <time>2023-10-28T14:13:41.036Z</time>
      </trkpt>
      <trkpt lat="50.41815" lon="2.74622">
        <ele>71.4</ele>
        <time>2023-10-28T14:13:49.534Z</time>
      </trkpt>
      <trkpt lat="50.41779" lon="2.74704">
        <ele>70</ele>
        <time>2023-10-28T14:13:58.049Z</time>
      </trkpt>
      <trkpt lat="50.4174" lon="2.74785">
        <ele>69</ele>
        <time>2023-10-28T14:14:06.582Z</time>
      </trkpt>
      <trkpt lat="50.4171" lon="2.74837">
        <ele>67.4</ele>
        <time>2023-10-28T14:14:15.127Z</time>
      </trkpt>
      <trkpt lat="50.41675" lon="2.74882">
        <ele>67.6</ele>
        <time>2023-10-28T14:14:23.685Z</time>
      </trkpt>
      <trkpt lat="50.41624" lon="2.7487">
        <ele>69</ele>
        <time>2023-10-28T14:14:32.257Z</time>
      </trkpt>
      <trkpt lat="50.41578" lon="2.7486">
        <ele>67.8</ele>
        <time>2023-10-28T14:14:40.841Z</time>
      </trkpt>
      <trkpt lat="50.41546" lon="2.74854">
        <ele>65.8</ele>
        <time>2023-10-28T14:14:49.434Z</time>
      </trkpt>
      <trkpt lat="50.41521" lon="2.7485">
        <ele>64.6</ele>
        <time>2023-10-28T14:14:58.034Z</time>
      </trkpt>
      <trkpt lat="50.41459" lon="2.74839">
        <ele>65.4</ele>
        <time>2023-10-28T14:15:06.651Z</time>
      </trkpt>
      <trkpt lat="50.41418" lon="2.74836">
        <ele>66.8</ele>
        <time>2023-10-28T14:15:15.279Z</time>
      </trkpt>
      <trkpt lat="50.41376" lon="2.74839">
        <ele>68.8</ele>
        <time>2023-10-28T14:15:23.919Z</time>
      </trkpt>
      <trkpt lat="50.41341" lon="2.74842">
        <ele>71.4</ele>
        <time>2023-10-28T14:15:32.569Z</time>
      </trkpt>
      <trkpt lat="50.41341" lon="2.74842">
        <ele>71.4</ele>
        <time>2023-10-28T14:15:41.219Z</time>
      </trkpt>
      <trkpt lat="50.41338" lon="2.74843">
        <ele>71.6</ele>
        <time>2023-10-28T14:15:49.869Z</time>
      </trkpt>
      <trkpt lat="50.41329" lon="2.74845">
        <ele>72.2</ele>
        <time>2023-10-28T14:15:58.522Z</time>
      </trkpt>
      <trkpt lat="50.41316" lon="2.74848">
        <ele>72.2</ele>
        <time>2023-10-28T14:16:07.178Z</time>
      </trkpt>
      <trkpt lat="50.41298" lon="2.74852">
        <ele>72.4</ele>
        <time>2023-10-28T14:16:15.839Z</time>
      </trkpt>
      <trkpt lat="50.41261" lon="2.74852">
        <ele>72</ele>
        <time>2023-10-28T14:16:24.510Z</time>
      </trkpt>
      <trkpt lat="50.41221" lon="2.74845">
        <ele>72.2</ele>
        <time>2023-10-28T14:16:33.193Z</time>
      </trkpt>
      <trkpt lat="50.41203" lon="2.74841">
        <ele>72</ele>
        <time>2023-10-28T14:16:41.881Z</time>
      </trkpt>
      <trkpt lat="50.41162" lon="2.74832">
        <ele>72</ele>
        <time>2023-10-28T14:16:50.580Z</time>
      </trkpt>
      <trkpt lat="50.41105" lon="2.74817">
        <ele>73.2</ele>
        <time>2023-10-28T14:16:59.295Z</time>
      </trkpt>
      <trkpt lat="50.41071" lon="2.74806">
        <ele>75.2</ele>
        <time>2023-10-28T14:17:08.019Z</time>
      </trkpt>
      <trkpt lat="50.41062" lon="2.74826">
        <ele>75.8</ele>
        <time>2023-10-28T14:17:16.747Z</time>
      </trkpt>
      <trkpt lat="50.41055" lon="2.74865">
        <ele>76</ele>
        <time>2023-10-28T14:17:25.483Z</time>
      </trkpt>
      <trkpt lat="50.41044" lon="2.74949">
        <ele>73.4</ele>
        <time>2023-10-28T14:17:34.234Z</time>
      </trkpt>
      <trkpt lat="50.41032" lon="2.75044">
        <ele>75.2</ele>
        <time>2023-10-28T14:17:43.002Z</time>
      </trkpt>
      <trkpt lat="50.41024" lon="2.75129">
        <ele>75.2</ele>
        <time>2023-10-28T14:17:51.784Z</time>
      </trkpt>
      <trkpt lat="50.41021" lon="2.75163">
        <ele>74.6</ele>
        <time>2023-10-28T14:18:00.573Z</time>
      </trkpt>
      <trkpt lat="50.4102" lon="2.75185">
        <ele>74.2</ele>
        <time>2023-10-28T14:18:09.365Z</time>
      </trkpt>
      <trkpt lat="50.41023" lon="2.75194">
        <ele>74.08</ele>
        <time>2023-10-28T14:18:18.159Z</time>
      </trkpt>
    </trkseg>
  </trk>
  <trk>
    <name><![CDATA[A1 les 3 monts 2023 _35km_ 2]]></name>
    <extensions>
      <line xmlns="http://www.topografix.com/GPX/gpx_style/0/2">
        <color>00FF00</color>
        <width>4</width>
      </line>
    </extensions>
    <trkseg>
      <trkpt lat="50.42454" lon="2.77336">
        <ele>53</ele>
      </trkpt>
    </trkseg>
  </trk>
</gpx>